Data for 12/07/2011

Time Sea-Level Adjusted Pressure Absolute Pressure Temperature Relative Humidity Dew Point Precipitation   
(mb) (inHg) (mb) (inHg) (C) (F) (%) (C) (F) (mm) (in)
00:01 1024 30.24 854 25.22 -7 19.4 87 -8.9 16 -92.5 -3.642
00:02 1024 30.24 854 25.22 -7 19.4 87 -8.8 16.1 -92.5 -3.642
00:03 1024 30.24 854 25.22 -7 19.4 87 -8.9 16.1 -92.5 -3.642
00:04 1024 30.24 854 25.22 -6.9 19.5 86 -8.8 16.1 -92.5 -3.642
00:05 1024 30.24 854 25.22 -7 19.5 86 -8.9 16 -92.5 -3.642
00:06 1024 30.24 854 25.22 -6.9 19.6 86 -8.9 16 -92.5 -3.642
00:07 1024 30.24 854 25.22 -7 19.4 86 -9 15.9 -92.5 -3.642
00:08 1024 30.24 854 25.22 -7 19.3 86 -9 15.9 -92.5 -3.642
00:09 1024 30.24 853 25.19 -7 19.4 87 -8.9 16 -92.5 -3.642
00:10 1024 30.24 853 25.19 -6.9 19.5 86 -8.9 16 -92.5 -3.642
00:11 1024 30.24 853 25.19 -6.9 19.7 86 -8.8 16.1 -92.5 -3.642
00:12 1024 30.24 853 25.19 -6.8 19.7 86 -8.8 16.1 -92.5 -3.642
00:13 1024 30.24 853 25.19 -6.8 19.8 85 -8.9 16 -92.5 -3.642
00:14 1024 30.24 853 25.19 -6.8 19.8 85 -8.9 16 -92.5 -3.642
00:15 1024 30.24 853 25.19 -6.8 19.8 84 -9.1 15.6 -92.5 -3.642
00:16 1024 30.24 853 25.19 -7 19.4 84 -9.2 15.5 -92.5 -3.642
00:17 1024 30.24 853 25.19 -7.1 19.3 85 -9.1 15.6 -92.5 -3.642
00:18 1024 30.24 853 25.19 -7.1 19.3 86 -9.1 15.6 -92.5 -3.642
00:19 1024 30.24 853 25.19 -7.2 19.1 85 -9.3 15.2 -92.5 -3.642
00:20 1024 30.24 853 25.19 -7.3 18.9 86 -9.3 15.2 -92.5 -3.642
00:21 1024 30.24 853 25.19 -7.4 18.6 85 -9.5 14.9 -92.5 -3.642
00:22 1024 30.24 853 25.19 -7.5 18.5 87 -9.3 15.2 -92.5 -3.642
00:23 1024 30.24 853 25.19 -7.4 18.6 86 -9.3 15.2 -92.5 -3.642
00:24 1024 30.24 853 25.19 -7.4 18.6 86 -9.4 15.1 -92.5 -3.642
00:25 1024 30.24 853 25.19 -7.5 18.4 85 -9.6 14.7 -92.5 -3.642
00:26 1024 30.24 853 25.19 -7.7 18.2 87 -9.4 15 -92.5 -3.642
00:27 1024 30.24 853 25.19 -7.6 18.3 87 -9.4 15.1 -92.4 -3.638
00:28 1024 30.24 853 25.19 -7.5 18.5 88 -9.2 15.4 -92.4 -3.638
00:29 1024 30.24 853 25.19 -7.5 18.6 86 -9.4 15.2 -92.4 -3.638
00:30 1024 30.24 853 25.19 -7.6 18.4 85 -9.7 14.6 -92.4 -3.638
00:31 1024 30.24 853 25.19 -7.6 18.4 88 -9.2 15.4 -92.4 -3.638
00:32 1024 30.24 853 25.19 -7.4 18.6 86 -9.4 15.1 -92.4 -3.638
00:33 1024 30.24 853 25.19 -7.7 18.1 83 -10.1 13.8 -92.4 -3.638
00:34 1024 30.24 853 25.19 -7.8 17.9 88 -9.5 14.8 -92.5 -3.642
00:35 1024 30.24 853 25.19 -7.8 18 84 -10.1 13.9 -92.5 -3.642
00:36 1024 30.24 853 25.19 -8.2 17.3 82 -10.8 12.5 -92.5 -3.642
00:37 1024 30.24 853 25.19 -8.4 16.9 89 -9.9 14.2 -92.5 -3.642
00:38 1024 30.24 853 25.19 -8.3 17 88 -10 14 -92.5 -3.642
00:39 1024 30.24 853 25.19 -8.5 16.8 86 -10.5 13.2 -92.5 -3.642
00:40 1024 30.24 853 25.19 -8.6 16.5 88 -10.3 13.5 -92.5 -3.642
00:41 1024 30.24 853 25.19 -8.6 16.6 89 -10.1 13.8 -92.5 -3.642
00:42 1024 30.24 853 25.19 -8.6 16.5 86 -10.6 12.9 -92.5 -3.642
00:43 1024 30.24 853 25.19 -8.8 16.1 86 -10.8 12.6 -92.5 -3.642
00:44 1024 30.24 853 25.19 -9 15.8 86 -10.9 12.3 -92.5 -3.642
00:45 1024 30.24 853 25.19 -9.1 15.7 88 -10.7 12.7 -92.5 -3.642
00:46 1024 30.24 853 25.19 -9.1 15.6 87 -10.9 12.4 -92.5 -3.642
00:47 1024 30.24 853 25.19 -9.2 15.4 88 -10.9 12.4 -92.5 -3.642
00:48 1024 30.24 853 25.19 -9.3 15.3 87 -11.1 12.1 -92.5 -3.642
00:49 1024 30.24 853 25.19 -9.4 15.1 89 -10.9 12.4 -92.5 -3.642
00:50 1024 30.24 853 25.19 -9.3 15.4 89 -10.7 12.7 -92.5 -3.642
00:51 1024 30.24 853 25.19 -9.4 15.2 86 -11.3 11.7 -92.5 -3.642
00:52 1024 30.24 853 25.19 -9.5 14.8 85 -11.5 11.2 -92.5 -3.642
00:53 1024 30.24 853 25.19 -9.8 14.4 86 -11.8 10.8 -92.5 -3.642
00:54 1024 30.24 853 25.19 -9.9 14.2 89 -11.3 11.6 -92.6 -3.646
00:55 1024 30.24 853 25.19 -9.7 14.5 88 -11.3 11.6 -92.6 -3.646
00:56 1024 30.24 853 25.19 -9.8 14.4 87 -11.6 11.2 -92.6 -3.646
00:57 1024 30.24 853 25.19 -9.9 14.2 86 -11.9 10.7 -92.6 -3.646
00:58 1024 30.24 853 25.19 -10.1 13.8 83 -12.5 9.5 -92.6 -3.646
00:59 1024 30.24 853 25.19 -10.5 13.1 84 -12.8 9 -92.6 -3.646
01:00 1024 30.24 853 25.19 -10.8 12.5 84 -13.1 8.5 -92.6 -3.646
01:01 1024 30.24 853 25.19 -11.1 12.1 81 -13.7 7.4 -92.6 -3.646
01:02 1024 30.24 853 25.19 -11.4 11.5 85 -13.4 7.9 -92.7 -3.65
01:03 1024 30.24 853 25.19 -11.5 11.2 88 -13.1 8.3 -92.7 -3.65
01:04 1024 30.24 853 25.19 -11.3 11.6 91 -12.5 9.5 -92.7 -3.65
01:05 1024 30.24 853 25.19 -11.2 11.9 88 -12.8 9 -92.7 -3.65
01:06 1024 30.24 853 25.19 -11.3 11.6 87 -13.1 8.3 -92.7 -3.65
01:07 1024 30.24 853 25.19 -11.4 11.5 89 -12.9 8.7 -92.7 -3.65
01:08 1024 30.24 853 25.19 -11.3 11.6 90 -12.7 9.1 -92.7 -3.65
01:09 1024 30.24 853 25.19 -11.2 11.9 90 -12.5 9.4 -92.7 -3.65
01:10 1024 30.24 853 25.19 -10.9 12.3 91 -12.1 10.3 -92.7 -3.65
01:11 1024 30.24 853 25.19 -10.8 12.6 86 -12.7 9.2 -92.8 -3.654
01:12 1024 30.24 853 25.19 -11 12.2 85 -13 8.6 -92.8 -3.654
01:13 1024 30.24 853 25.19 -11.2 11.9 86 -13 8.5 -92.8 -3.654
01:14 1024 30.24 853 25.19 -11.2 11.8 88 -12.8 9 -92.8 -3.654
01:15 1024 30.24 853 25.19 -11.2 11.8 89 -12.7 9.1 -92.8 -3.654
01:16 1024 30.24 853 25.19 -11.2 11.9 87 -12.9 8.8 -92.8 -3.654
01:17 1024 30.24 853 25.19 -11.2 11.8 87 -12.9 8.7 -92.8 -3.654
01:18 1024 30.24 853 25.19 -11.2 11.9 89 -12.6 9.4 -92.8 -3.654
01:19 1024 30.24 853 25.19 -11.1 12.1 89 -12.6 9.4 -92.8 -3.654
01:20 1024 30.24 853 25.19 -10.9 12.4 88 -12.5 9.5 -92.8 -3.654
01:21 1024 30.24 853 25.19 -10.9 12.4 88 -12.5 9.5 -92.8 -3.654
01:22 1024 30.24 853 25.19 -10.8 12.6 88 -12.4 9.6 -92.8 -3.654
01:23 1024 30.24 853 25.19 -10.7 12.7 88 -12.3 9.8 -92.8 -3.654
01:24 1024 30.24 853 25.19 -10.6 12.9 89 -12.2 10.1 -92.8 -3.654
01:25 1024 30.24 853 25.19 -10.5 13.1 89 -12 10.5 -92.8 -3.654
01:26 1024 30.24 853 25.19 -10.3 13.5 89 -11.8 10.8 -92.8 -3.654
01:27 1024 30.24 853 25.19 -10.1 13.9 87 -11.8 10.7 -92.8 -3.654
01:28 1024 30.24 853 25.19 -10 13.9 86 -12 10.4 -92.8 -3.654
01:29 1024 30.24 853 25.19 -10.1 13.9 86 -11.9 10.5 -92.8 -3.654
01:30 1024 30.24 853 25.19 -10 14 87 -11.8 10.8 -92.8 -3.654
01:31 1024 30.24 853 25.19 -9.8 14.3 86 -11.7 11 -92.8 -3.654
01:32 1024 30.24 853 25.19 -9.7 14.5 85 -11.8 10.7 -92.8 -3.654
01:33 1024 30.24 853 25.19 -9.7 14.5 84 -11.9 10.6 -92.8 -3.654
01:34 1024 30.24 853 25.19 -9.7 14.6 84 -11.9 10.7 -92.9 -3.657
01:35 1024 30.24 853 25.19 -9.7 14.6 84 -11.8 10.7 -92.9 -3.657
01:36 1024 30.24 853 25.19 -9.6 14.7 83 -11.9 10.5 -92.9 -3.657
01:37 1024 30.24 853 25.19 -9.6 14.7 84 -11.9 10.6 -92.9 -3.657
01:38 1024 30.24 853 25.19 -9.6 14.8 82 -12.1 10.3 -92.9 -3.657
01:39 1024 30.24 853 25.19 -9.7 14.6 83 -12 10.4 -92.9 -3.657
01:40 1024 30.24 853 25.19 -9.5 14.8 82 -12 10.3 -92.9 -3.657
01:41 1024 30.24 853 25.19 -9.7 14.6 78 -12.9 8.8 -92.9 -3.657
01:42 1024 30.24 853 25.19 -10.1 13.8 80 -12.9 8.7 -92.9 -3.657
01:43 1024 30.24 853 25.19 -10.4 13.3 82 -12.9 8.8 -92.9 -3.657
01:44 1024 30.24 853 25.19 -10.6 13 82 -13.1 8.4 -93 -3.661
01:45 1024 30.24 853 25.19 -10.7 12.8 84 -12.9 8.8 -93 -3.661
01:46 1024 30.24 853 25.19 -10.7 12.7 85 -12.8 8.9 -93 -3.661
01:47 1024 30.24 853 25.19 -10.7 12.7 86 -12.6 9.3 -93 -3.661
01:48 1024 30.24 853 25.19 -10.7 12.8 86 -12.6 9.3 -93 -3.661
01:49 1024 30.24 853 25.19 -10.6 12.9 86 -12.5 9.6 -93 -3.661
01:50 1024 30.24 853 25.19 -10.5 13.1 87 -12.3 9.8 -93 -3.661
01:51 1024 30.24 853 25.19 -10.4 13.3 86 -12.3 9.8 -93 -3.661
01:52 1024 30.24 853 25.19 -10.4 13.3 85 -12.5 9.5 -93 -3.661
01:53 1024 30.24 853 25.19 -10.4 13.2 84 -12.6 9.4 -93 -3.661
01:54 1024 30.24 853 25.19 -10.5 13.1 84 -12.7 9.1 -93 -3.661
01:55 1024 30.24 853 25.19 -10.6 12.9 84 -12.8 9 -93 -3.661
01:56 1024 30.24 853 25.19 -10.7 12.8 84 -12.9 8.8 -93 -3.661
01:57 1024 30.24 853 25.19 -10.7 12.7 84 -12.9 8.7 -93 -3.661
01:58 1024 30.24 853 25.19 -10.8 12.6 84 -12.9 8.7 -93 -3.661
01:59 1024 30.24 853 25.19 -10.8 12.5 82 -13.3 8.1 -93 -3.661
02:00 1024 30.24 853 25.19 -11.2 11.9 80 -14 6.7 -93 -3.661
02:01 1024 30.24 853 25.19 -11.6 11.1 81 -14.2 6.4 -93 -3.661
02:02 1024 30.24 853 25.19 -11.8 10.7 84 -14 6.9 -93 -3.661
02:03 1024 30.24 853 25.19 -11.9 10.6 86 -13.8 7.1 -93.1 -3.665
02:04 1024 30.24 853 25.19 -11.8 10.8 86 -13.6 7.4 -93.1 -3.665
02:05 1024 30.24 853 25.19 -11.7 10.9 86 -13.6 7.5 -93.1 -3.665
02:06 1024 30.24 853 25.19 -11.8 10.9 85 -13.7 7.3 -93.1 -3.665
02:07 1024 30.24 853 25.19 -11.7 10.9 86 -13.6 7.5 -93.1 -3.665
02:08 1024 30.24 853 25.19 -11.6 11.2 88 -13.2 8.3 -93.1 -3.665
02:09 1024 30.24 853 25.19 -11.4 11.4 86 -13.4 7.9 -93.1 -3.665
02:10 1024 30.24 853 25.19 -11.5 11.3 85 -13.5 7.7 -93.1 -3.665
02:11 1024 30.24 853 25.19 -11.6 11.2 85 -13.6 7.5 -93.1 -3.665
02:12 1024 30.24 853 25.19 -11.7 11 84 -13.8 7.1 -93.1 -3.665
02:13 1024 30.24 853 25.19 -11.8 10.8 85 -13.8 7.1 -93.1 -3.665
02:14 1024 30.24 853 25.19 -11.9 10.5 86 -13.9 7 -93.1 -3.665
02:15 1024 30.24 853 25.19 -12 10.4 86 -13.9 7 -93.1 -3.665
02:16 1024 30.24 853 25.19 -12.1 10.2 86 -14 6.8 -93.1 -3.665
02:17 1024 30.24 853 25.19 -12.2 10.1 87 -14 6.9 -93.1 -3.665
02:18 1024 30.24 853 25.19 -12.2 10.1 87 -13.9 7 -93.1 -3.665
02:19 1024 30.24 853 25.19 -12.3 9.9 87 -14.1 6.6 -93.1 -3.665
02:20 1024 30.24 853 25.19 -12.2 10 89 -13.7 7.3 -93.1 -3.665
02:21 1024 30.24 853 25.19 -12 10.3 89 -13.5 7.7 -93.1 -3.665
02:22 1024 30.24 853 25.19 -11.9 10.6 86 -13.7 7.3 -93.1 -3.665
02:23 1024 30.24 853 25.19 -12 10.4 86 -13.8 7.1 -93.1 -3.665
02:24 1024 30.24 853 25.19 -12.1 10.3 87 -13.8 7.2 -93.1 -3.665
02:25 1024 30.24 853 25.19 -12.1 10.2 87 -13.8 7.1 -93.1 -3.665
02:26 1024 30.24 853 25.19 -12.1 10.3 89 -13.6 7.5 -93.1 -3.665
02:27 1024 30.24 853 25.19 -12.1 10.3 88 -13.7 7.3 -93.1 -3.665
02:28 1024 30.24 853 25.19 -12.2 10.1 86 -14 6.8 -93.1 -3.665
02:29 1024 30.24 853 25.19 -12.3 9.8 86 -14.2 6.4 -93.1 -3.665
02:30 1024 30.24 853 25.19 -12.4 9.7 90 -13.7 7.3 -93.1 -3.665
02:31 1024 30.24 853 25.19 -12.1 10.3 93 -13 8.6 -93.1 -3.665
02:32 1024 30.24 853 25.19 -11.7 10.9 93 -12.6 9.2 -93.1 -3.665
02:33 1024 30.24 853 25.19 -11.5 11.3 93 -12.4 9.6 -93.1 -3.665
02:34 1024 30.24 853 25.19 -11.4 11.5 92 -12.5 9.5 -93.1 -3.665
02:35 1024 30.24 853 25.19 -11.2 11.9 93 -12.1 10.2 -93.1 -3.665
02:36 1024 30.24 853 25.19 -11 12.3 94 -11.8 10.7 -93.1 -3.665
02:37 1024 30.24 853 25.19 -10.7 12.7 92 -11.7 10.9 -93.1 -3.665
02:38 1024 30.24 853 25.19 -10.6 12.8 91 -11.8 10.7 -93.1 -3.665
02:39 1024 30.24 853 25.19 -10.7 12.8 88 -12.3 9.9 -93.1 -3.665
02:40 1024 30.24 853 25.19 -10.8 12.5 89 -12.3 9.9 -93.1 -3.665
02:41 1024 30.24 853 25.19 -10.9 12.3 88 -12.5 9.4 -93.1 -3.665
02:42 1024 30.24 853 25.19 -10.9 12.3 92 -12 10.4 -93.1 -3.665
02:43 1024 30.24 853 25.19 -10.7 12.7 92 -11.8 10.8 -93.1 -3.665
02:44 1024 30.24 853 25.19 -10.6 12.9 92 -11.6 11.1 -93.1 -3.665
02:45 1024 30.24 853 25.19 -10.5 13.1 92 -11.6 11.1 -93.1 -3.665
02:46 1024 30.24 853 25.19 -10.3 13.4 92 -11.5 11.4 -93.1 -3.665
02:47 1024 30.24 853 25.19 -10.3 13.5 91 -11.5 11.3 -93.1 -3.665
02:48 1024 30.24 853 25.19 -10.3 13.5 90 -11.6 11.2 -93.1 -3.665
02:49 1024 30.24 853 25.19 -10.4 13.4 88 -12 10.5 -93.1 -3.665
02:50 1024 30.24 853 25.19 -10.5 13.2 88 -12 10.3 -93.1 -3.665
02:51 1024 30.24 853 25.19 -10.5 13 90 -11.9 10.6 -93.1 -3.665
02:52 1024 30.24 853 25.19 -10.7 12.8 89 -12.2 10.1 -93.1 -3.665
02:53 1024 30.24 853 25.19 -10.7 12.8 90 -12 10.4 -93.1 -3.665
02:54 1024 30.24 853 25.19 -10.8 12.6 90 -12.2 10.1 -93.1 -3.665
02:55 1024 30.24 853 25.19 -10.9 12.4 89 -12.4 9.7 -93.1 -3.665
02:56 1024 30.24 853 25.19 -11.1 12 88 -12.7 9.1 -93.1 -3.665
02:57 1024 30.24 853 25.19 -11.3 11.6 87 -13.1 8.4 -93.1 -3.665
02:58 1024 30.24 853 25.19 -11.5 11.2 89 -13.1 8.5 -93.1 -3.665
02:59 1024 30.24 853 25.19 -11.6 11.2 90 -12.8 8.9 -93.1 -3.665
03:00 1024 30.24 853 25.19 -11.5 11.3 91 -12.7 9.2 -93.1 -3.665
03:01 1024 30.24 853 25.19 -11.5 11.4 92 -12.5 9.4 -93.1 -3.665
03:02 1024 30.24 853 25.19 -11.3 11.7 95 -12 10.4 -93.1 -3.665
03:03 1024 30.24 853 25.19 -10.8 12.6 96 -11.4 11.5 -93.1 -3.665
03:04 1024 30.24 853 25.19 -10.9 12.4 93 -11.8 10.8 -93.1 -3.665
03:05 1024 30.24 853 25.19 -11 12.2 92 -12 10.4 -93.1 -3.665
03:06 1024 30.24 853 25.19 -11 12.2 92 -12 10.3 -93.1 -3.665
03:07 1024 30.24 853 25.19 -10.8 12.5 95 -11.5 11.3 -93.1 -3.665
03:08 1024 30.24 853 25.19 -10.7 12.7 94 -11.5 11.3 -93.1 -3.665
03:09 1024 30.24 853 25.19 -10.8 12.6 92 -11.8 10.7 -93.1 -3.665
03:10 1024 30.24 853 25.19 -11 12.3 91 -12.2 10 -93.1 -3.665
03:11 1024 30.24 853 25.19 -11.1 12 91 -12.3 9.8 -93.1 -3.665
03:12 1024 30.24 853 25.19 -11.2 11.8 91 -12.4 9.6 -93.1 -3.665
03:13 1024 30.24 853 25.19 -11.3 11.6 91 -12.4 9.6 -93.1 -3.665
03:14 1024 30.24 853 25.19 -11.4 11.6 92 -12.3 9.8 -93.1 -3.665
03:15 1024 30.24 853 25.19 -11.3 11.7 94 -12.1 10.2 -93.1 -3.665
03:16 1024 30.24 853 25.19 -11.2 11.9 93 -12 10.3 -93.1 -3.665
03:17 1024 30.24 853 25.19 -11.3 11.7 92 -12.3 9.9 -93.1 -3.665
03:18 1024 30.24 853 25.19 -11.4 11.5 91 -12.5 9.4 -93.2 -3.669
03:19 1024 30.24 853 25.19 -11.5 11.3 92 -12.5 9.4 -93.2 -3.669
03:20 1024 30.24 853 25.19 -11.4 11.4 93 -12.3 9.9 -93.2 -3.669
03:21 1024 30.24 853 25.19 -11.5 11.4 93 -12.4 9.6 -93.2 -3.669
03:22 1024 30.24 853 25.19 -11.6 11 91 -12.8 8.9 -93.2 -3.669
03:23 1024 30.24 853 25.19 -11.7 10.9 92 -12.8 9 -93.2 -3.669
03:24 1024 30.24 853 25.19 -11.8 10.7 90 -13.1 8.4 -93.2 -3.669
03:25 1024 30.24 853 25.19 -12 10.4 91 -13.3 8.1 -93.2 -3.669
03:26 1024 30.24 853 25.19 -12.2 10.1 90 -13.5 7.7 -93.2 -3.669
03:27 1024 30.24 853 25.19 -12.3 9.8 91 -13.5 7.7 -93.2 -3.669
03:28 1024 30.24 853 25.19 -12.3 9.8 93 -13.3 8.1 -93.2 -3.669
03:29 1024 30.24 853 25.19 -12.2 10 92 -13.2 8.2 -93.2 -3.669
03:30 1024 30.24 853 25.19 -12.2 10 92 -13.2 8.2 -93.2 -3.669
03:31 1024 30.24 853 25.19 -12.1 10.1 93 -13.1 8.4 -93.2 -3.669
03:32 1024 30.24 853 25.19 -12.1 10.3 93 -13 8.5 -93.2 -3.669
03:33 1024 30.24 853 25.19 -12 10.5 93 -12.9 8.7 -93.2 -3.669
03:34 1024 30.24 853 25.19 -11.9 10.6 93 -12.8 8.9 -93.2 -3.669
03:35 1024 30.24 853 25.19 -11.8 10.8 92 -12.8 9 -93.2 -3.669
03:36 1024 30.24 853 25.19 -11.7 10.9 92 -12.7 9.1 -93.2 -3.669
03:37 1024 30.24 853 25.19 -11.6 11.1 93 -12.6 9.4 -93.2 -3.669
03:38 1024 30.24 853 25.19 -11.5 11.3 93 -12.5 9.5 -93.2 -3.669
03:39 1024 30.24 853 25.19 -11.3 11.6 92 -12.3 9.8 -93.2 -3.669
03:40 1024 30.24 853 25.19 -11.3 11.7 91 -12.5 9.6 -93.2 -3.669
03:41 1024 30.24 853 25.19 -11.3 11.7 90 -12.6 9.3 -93.2 -3.669
03:42 1024 30.24 853 25.19 -11.4 11.5 90 -12.8 9 -93.2 -3.669
03:43 1024 30.24 853 25.19 -11.5 11.3 89 -13 8.7 -93.2 -3.669
03:44 1024 30.24 853 25.19 -11.6 11.1 89 -13.1 8.4 -93.2 -3.669
03:45 1024 30.24 853 25.19 -11.8 10.7 89 -13.3 8.1 -93.2 -3.669
03:46 1024 30.24 853 25.19 -11.8 10.7 91 -13 8.6 -93.2 -3.669
03:47 1024 30.24 853 25.19 -11.7 11 92 -12.7 9.1 -93.2 -3.669
03:48 1024 30.24 853 25.19 -11.6 11.2 91 -12.7 9.1 -93.2 -3.669
03:49 1024 30.24 853 25.19 -11.6 11.2 91 -12.8 9 -93.2 -3.669
03:50 1024 30.24 853 25.19 -11.6 11.2 90 -12.8 8.9 -93.2 -3.669
03:51 1024 30.24 853 25.19 -11.5 11.3 92 -12.6 9.3 -93.2 -3.669
03:52 1024 30.24 853 25.19 -11.3 11.6 93 -12.2 10 -93.3 -3.673
03:53 1024 30.24 853 25.19 -11.1 11.9 92 -12.2 10.1 -93.2 -3.669
03:54 1024 30.24 853 25.19 -11 12.2 93 -11.9 10.5 -93.2 -3.669
03:55 1024 30.24 853 25.19 -10.8 12.5 93 -11.8 10.7 -93.3 -3.673
03:56 1024 30.24 853 25.19 -10.9 12.5 87 -12.6 9.4 -93.2 -3.669
03:57 1024 30.24 853 25.19 -11.2 11.9 88 -12.8 8.9 -93.2 -3.669
03:58 1024 30.24 853 25.19 -11.3 11.7 90 -12.6 9.3 -93.2 -3.669
03:59 1024 30.24 853 25.19 -11.1 12 93 -12.1 10.3 -93.2 -3.669
04:00 1024 30.24 853 25.19 -10.8 12.6 95 -11.4 11.5 -93.3 -3.673
04:01 1024 30.24 853 25.19 -10 13.9 96 -10.5 13.1 -93.2 -3.669
04:02 1024 30.24 853 25.19 -9.6 14.7 92 -10.7 12.8 -93.2 -3.669
04:03 1024 30.24 853 25.19 -9.6 14.8 91 -10.8 12.6 -93.2 -3.669
04:04 1024 30.24 853 25.19 -9.5 14.9 89 -11 12.2 -93.2 -3.669
04:05 1024 30.24 853 25.19 -9.5 14.8 89 -11 12.1 -93.2 -3.669
04:06 1024 30.24 853 25.19 -9.6 14.8 87 -11.4 11.5 -93.2 -3.669
04:07 1024 30.24 853 25.19 -9.7 14.6 90 -11 12.2 -93.2 -3.669
04:08 1024 30.24 853 25.19 -9.7 14.6 89 -11.2 11.8 -93.2 -3.669
04:09 1024 30.24 853 25.19 -9.8 14.3 87 -11.5 11.2 -93.2 -3.669
04:10 1024 30.24 853 25.19 -10 14.1 87 -11.7 11 -93.2 -3.669
04:11 1024 30.24 853 25.19 -10.2 13.7 86 -12.1 10.3 -93.2 -3.669
04:12 1024 30.24 853 25.19 -10.4 13.2 88 -12 10.4 -93.2 -3.669
04:13 1024 30.24 853 25.19 -10.5 13.1 90 -11.8 10.7 -93.2 -3.669
04:14 1024 30.24 853 25.19 -10.5 13.1 89 -12 10.3 -93.2 -3.669
04:15 1024 30.24 853 25.19 -10.6 12.9 89 -12.1 10.2 -93.2 -3.669
04:16 1023 30.21 853 25.19 -10.8 12.7 88 -12.3 9.8 -93.2 -3.669
04:17 1024 30.24 853 25.19 -10.9 12.3 89 -12.5 9.6 -93.2 -3.669
04:18 1024 30.24 853 25.19 -11 12.1 89 -12.5 9.5 -93.2 -3.669
04:19 1024 30.24 853 25.19 -11.2 11.8 88 -12.9 8.8 -93.2 -3.669
04:20 1024 30.24 853 25.19 -11.5 11.4 88 -13.1 8.4 -93.2 -3.669
04:21 1024 30.24 853 25.19 -11.6 11.2 90 -12.9 8.7 -93.2 -3.669
04:22 1024 30.24 853 25.19 -11.5 11.2 90 -12.9 8.9 -93.2 -3.669
04:23 1024 30.24 853 25.19 -11.5 11.2 91 -12.7 9.1 -93.2 -3.669
04:24 1024 30.24 853 25.19 -11.4 11.4 91 -12.7 9.2 -93.2 -3.669
04:25 1024 30.24 853 25.19 -11.4 11.5 90 -12.7 9.1 -93.2 -3.669
04:26 1024 30.24 853 25.19 -11.4 11.6 90 -12.7 9.1 -93.2 -3.669
04:27 1024 30.24 853 25.19 -11.3 11.7 90 -12.7 9.2 -93.2 -3.669
04:28 1024 30.24 853 25.19 -11.3 11.7 87 -13 8.5 -93.2 -3.669
04:29 1024 30.24 853 25.19 -11.7 10.9 83 -14.1 6.6 -93.2 -3.669
04:30 1024 30.24 853 25.19 -12.1 10.2 86 -14 6.8 -93.2 -3.669
04:31 1023 30.21 853 25.19 -12.2 10 88 -13.8 7.1 -93.2 -3.669
04:32 1023 30.21 853 25.19 -12.1 10.3 91 -13.3 8.1 -93.2 -3.669
04:33 1023 30.21 853 25.19 -11.9 10.5 91 -13.1 8.5 -93.2 -3.669
04:34 1023 30.21 853 25.19 -11.8 10.9 91 -12.9 8.8 -93.2 -3.669
04:35 1023 30.21 853 25.19 -11.6 11.1 91 -12.8 9 -93.2 -3.669
04:36 1023 30.21 853 25.19 -11.4 11.5 91 -12.6 9.3 -93.2 -3.669
04:37 1024 30.24 853 25.19 -11.1 12 92 -12.2 10 -93.2 -3.669
04:38 1024 30.24 853 25.19 -10.7 12.7 92 -11.8 10.7 -93.2 -3.669
04:39 1024 30.24 853 25.19 -10 13.9 91 -11.2 11.8 -93.2 -3.669
04:40 1024 30.24 853 25.19 -9.5 15 88 -11.2 11.9 -93.2 -3.669
04:41 1024 30.24 853 25.19 -9 15.7 84 -11.3 11.6 -93.2 -3.669
04:42 1024 30.24 853 25.19 -8.7 16.4 81 -11.3 11.7 -93.2 -3.669
04:43 1023 30.21 853 25.19 -8.4 16.9 79 -11.3 11.6 -93.2 -3.669
04:44 1023 30.21 853 25.19 -8.2 17.2 78 -11.5 11.3 -93.2 -3.669
04:45 1023 30.21 853 25.19 -8.1 17.5 78 -11.2 11.9 -93.2 -3.669
04:46 1023 30.21 853 25.19 -7.7 18.1 77 -11.1 12 -93.2 -3.669
04:47 1023 30.21 853 25.19 -7.5 18.6 75 -11.2 11.8 -93.2 -3.669
04:48 1023 30.21 853 25.19 -7.3 18.9 73 -11.3 11.7 -93.2 -3.669
04:49 1023 30.21 853 25.19 -7.3 18.9 73 -11.4 11.6 -93.2 -3.669
04:50 1023 30.21 853 25.19 -7.3 18.8 73 -11.3 11.6 -93.2 -3.669
04:51 1023 30.21 853 25.19 -7.4 18.8 72 -11.5 11.3 -93.2 -3.669
04:52 1023 30.21 853 25.19 -7.3 18.8 74 -11.2 11.9 -93.2 -3.669
04:53 1023 30.21 853 25.19 -7.2 19.1 73 -11.2 11.8 -93.2 -3.669
04:54 1023 30.21 853 25.19 -7 19.4 72 -11.2 11.8 -93.2 -3.669
04:55 1023 30.21 853 25.19 -7 19.5 72 -11.2 11.9 -93.1 -3.665
04:56 1023 30.21 853 25.19 -6.9 19.6 72 -11.1 12 -93.2 -3.669
04:57 1023 30.21 853 25.19 -6.8 19.8 72 -11.1 12.1 -93.2 -3.669
04:58 1023 30.21 853 25.19 -6.7 20 71 -11.1 12.1 -93.2 -3.669
04:59 1024 30.24 853 25.19 -6.6 20.1 71 -11.1 12 -93.2 -3.669
05:00 1023 30.21 853 25.19 -6.7 19.9 71 -11.2 11.9 -93.2 -3.669
05:01 1024 30.24 853 25.19 -6.8 19.8 70 -11.3 11.6 -93.2 -3.669
05:02 1024 30.24 853 25.19 -7.1 19.3 70 -11.6 11.1 -93.2 -3.669
05:03 1024 30.24 853 25.19 -7.5 18.5 72 -11.7 10.9 -93.2 -3.669
05:04 1024 30.24 853 25.19 -7.9 17.7 75 -11.6 11 -93.1 -3.665
05:05 1024 30.24 853 25.19 -8.1 17.4 75 -11.8 10.8 -93.1 -3.665
05:06 1024 30.24 853 25.19 -8.2 17.2 75 -11.8 10.7 -93.1 -3.665
05:07 1024 30.24 853 25.19 -8.2 17.2 75 -11.9 10.6 -93.1 -3.665
05:08 1024 30.24 853 25.19 -8.3 17.1 77 -11.7 10.9 -93.1 -3.665
05:09 1024 30.24 853 25.19 -8.2 17.3 78 -11.4 11.5 -93.1 -3.665
05:10 1024 30.24 853 25.19 -7.9 17.8 77 -11.2 11.9 -93.1 -3.665
05:11 1024 30.24 853 25.19 -7.5 18.5 76 -11.1 12.1 -93.1 -3.665
05:12 1024 30.24 853 25.19 -7.2 19 75 -11 12.2 -93.1 -3.665
05:13 1024 30.24 853 25.19 -7 19.4 74 -10.9 12.4 -93.1 -3.665
05:14 1024 30.24 853 25.19 -6.8 19.8 73 -10.8 12.5 -93.1 -3.665
05:15 1024 30.24 853 25.19 -6.7 19.9 73 -10.8 12.5 -93.1 -3.665
05:16 1024 30.24 853 25.19 -6.7 20 72 -10.9 12.4 -93.1 -3.665
05:17 1024 30.24 853 25.19 -6.6 20 72 -10.9 12.4 -93.1 -3.665
05:18 1024 30.24 853 25.19 -6.6 20.1 72 -10.9 12.3 -93.1 -3.665
05:19 1024 30.24 853 25.19 -6.7 20 72 -10.9 12.3 -93.1 -3.665
05:20 1024 30.24 853 25.19 -6.6 20 72 -10.9 12.4 -93.1 -3.665
05:21 1024 30.24 853 25.19 -6.7 20 72 -10.9 12.3 -93.1 -3.665
05:22 1024 30.24 853 25.19 -6.6 20 72 -10.9 12.3 -93.1 -3.665
05:23 1024 30.24 853 25.19 -6.6 20.1 72 -10.9 12.3 -93.1 -3.665
05:24 1024 30.24 853 25.19 -6.6 20.1 72 -10.9 12.3 -93.1 -3.665
05:25 1023 30.21 853 25.19 -6.7 20 72 -11 12.3 -93.1 -3.665
05:26 1023 30.21 853 25.19 -6.6 20.1 71 -11 12.3 -93.1 -3.665
05:27 1023 30.21 853 25.19 -6.7 20 71 -11 12.1 -93.1 -3.665
05:28 1024 30.24 853 25.19 -6.6 20.1 71 -11 12.1 -93.1 -3.665
05:29 1024 30.24 853 25.19 -6.6 20.1 71 -11.1 12.1 -93.1 -3.665
05:30 1024 30.24 853 25.19 -6.6 20.2 71 -11 12.1 -93.1 -3.665
05:31 1024 30.24 853 25.19 -6.6 20.2 71 -11 12.2 -93.1 -3.665
05:32 1024 30.24 853 25.19 -6.7 20 71 -11.1 12 -93.1 -3.665
05:33 1024 30.24 853 25.19 -6.7 19.9 71 -11.1 12 -93.1 -3.665
05:34 1024 30.24 853 25.19 -6.8 19.8 71 -11.1 11.9 -93.1 -3.665
05:35 1024 30.24 853 25.19 -6.9 19.7 71 -11.2 11.9 -93.1 -3.665
05:36 1024 30.24 853 25.19 -6.9 19.7 71 -11.2 11.8 -93.1 -3.665
05:37 1024 30.24 853 25.19 -6.9 19.6 72 -11.2 11.8 -93.1 -3.665
05:38 1024 30.24 853 25.19 -6.9 19.5 72 -11.2 11.8 -93.1 -3.665
05:39 1024 30.24 853 25.19 -6.9 19.6 72 -11.2 11.9 -93.1 -3.665
05:40 1024 30.24 853 25.19 -6.9 19.6 72 -11.2 11.9 -93.1 -3.665
05:41 1024 30.24 853 25.19 -6.9 19.7 72 -11.2 11.9 -93.1 -3.665
05:42 1024 30.24 853 25.19 -6.8 19.8 71 -11.1 12 -93.1 -3.665
05:43 1024 30.24 853 25.19 -6.7 19.9 71 -11.1 12 -93.1 -3.665
05:44 1023 30.21 853 25.19 -6.6 20.1 71 -11.1 12.1 -93.1 -3.665
05:45 1023 30.21 853 25.19 -6.5 20.3 71 -11 12.3 -93.1 -3.665
05:46 1023 30.21 853 25.19 -6.5 20.3 71 -10.9 12.3 -93.1 -3.665
05:47 1023 30.21 853 25.19 -6.4 20.4 71 -11 12.3 -93.1 -3.665
05:48 1023 30.21 853 25.19 -6.4 20.4 71 -11 12.3 -93.1 -3.665
05:49 1023 30.21 853 25.19 -6.4 20.4 71 -10.9 12.4 -93.1 -3.665
05:50 1023 30.21 853 25.19 -6.4 20.5 71 -10.9 12.4 -93.1 -3.665
05:51 1023 30.21 853 25.19 -6.5 20.4 71 -10.9 12.4 -93.1 -3.665
05:52 1023 30.21 853 25.19 -6.5 20.3 71 -10.9 12.4 -93.1 -3.665
05:53 1023 30.21 853 25.19 -6.5 20.3 71 -10.9 12.4 -93.1 -3.665
05:54 1023 30.21 853 25.19 -6.5 20.3 71 -10.9 12.3 -93.1 -3.665
05:55 1023 30.21 853 25.19 -6.4 20.4 71 -10.9 12.3 -93.1 -3.665
05:56 1023 30.21 853 25.19 -6.4 20.4 71 -10.9 12.4 -93.1 -3.665
05:57 1024 30.24 853 25.19 -6.5 20.4 71 -10.9 12.3 -93.1 -3.665
05:58 1024 30.24 853 25.19 -6.4 20.5 70 -10.9 12.4 -93.1 -3.665
05:59 1024 30.24 853 25.19 -6.4 20.5 70 -11 12.3 -93.1 -3.665
06:00 1024 30.24 853 25.19 -6.4 20.5 70 -11 12.2 -93.1 -3.665
06:01 1024 30.24 853 25.19 -6.4 20.4 70 -11.1 12.1 -93.1 -3.665
06:02 1024 30.24 853 25.19 -6.5 20.3 70 -11 12.1 -93.1 -3.665
06:03 1024 30.24 853 25.19 -6.5 20.2 70 -11.1 12.1 -93.1 -3.665
06:04 1024 30.24 853 25.19 -6.5 20.4 70 -11 12.1 -93.1 -3.665
06:05 1024 30.24 853 25.19 -6.4 20.5 70 -10.9 12.3 -93.1 -3.665
06:06 1024 30.24 853 25.19 -6.4 20.5 70 -11 12.2 -93.1 -3.665
06:07 1024 30.24 853 25.19 -6.3 20.6 70 -10.9 12.3 -93.1 -3.665
06:08 1024 30.24 853 25.19 -6.3 20.7 69 -11 12.2 -93.1 -3.665
06:09 1024 30.24 853 25.19 -6.2 20.9 69 -10.9 12.4 -93.1 -3.665
06:10 1024 30.24 853 25.19 -6.1 21 69 -10.9 12.4 -93.1 -3.665
06:11 1024 30.24 853 25.19 -6.1 21 69 -10.9 12.5 -93.1 -3.665
06:12 1024 30.24 853 25.19 -6.1 21 70 -10.8 12.5 -93.1 -3.665
06:13 1024 30.24 853 25.19 -6.1 21 70 -10.8 12.6 -93.1 -3.665
06:14 1024 30.24 853 25.19 -6.2 20.9 69 -10.9 12.4 -93.1 -3.665
06:15 1024 30.24 853 25.19 -6.1 21 69 -10.8 12.5 -93.1 -3.665
06:16 1024 30.24 853 25.19 -6.1 21.1 69 -10.8 12.6 -93.1 -3.665
06:17 1024 30.24 853 25.19 -6 21.2 69 -10.8 12.6 -93.1 -3.665
06:18 1024 30.24 853 25.19 -6 21.3 69 -10.8 12.6 -93.1 -3.665
06:19 1024 30.24 853 25.19 -6 21.2 70 -10.6 13 -93.1 -3.665
06:20 1024 30.24 853 25.19 -6 21.2 70 -10.6 12.9 -93.1 -3.665
06:21 1024 30.24 853 25.19 -6.1 21.1 70 -10.7 12.8 -93.1 -3.665
06:22 1024 30.24 853 25.19 -6 21.1 70 -10.6 12.9 -93.1 -3.665
06:23 1024 30.24 853 25.19 -6 21.1 70 -10.6 13 -93.1 -3.665
06:24 1024 30.24 853 25.19 -6 21.1 70 -10.6 12.9 -93.1 -3.665
06:25 1024 30.24 853 25.19 -6 21.1 71 -10.5 13.1 -93.1 -3.665
06:26 1024 30.24 853 25.19 -6.1 21.1 70 -10.7 12.7 -93.1 -3.665
06:27 1024 30.24 853 25.19 -6.3 20.7 69 -11 12.2 -93.1 -3.665
06:28 1024 30.24 853 25.19 -6.5 20.4 71 -10.9 12.4 -93.1 -3.665
06:29 1024 30.24 853 25.19 -6.6 20 72 -10.9 12.4 -93.1 -3.665
06:30 1024 30.24 853 25.19 -6.8 19.7 73 -10.8 12.5 -93.1 -3.665
06:31 1024 30.24 853 25.19 -6.7 19.9 72 -10.9 12.4 -93.1 -3.665
06:32 1024 30.24 853 25.19 -6.6 20.1 72 -10.8 12.6 -93.1 -3.665
06:33 1024 30.24 853 25.19 -6.7 20 73 -10.8 12.5 -93.1 -3.665
06:34 1024 30.24 853 25.19 -6.9 19.6 73 -10.9 12.4 -93.1 -3.665
06:35 1024 30.24 853 25.19 -7 19.4 75 -10.8 12.6 -93.1 -3.665
06:36 1024 30.24 853 25.19 -7.1 19.3 75 -10.8 12.6 -93.1 -3.665
06:37 1024 30.24 853 25.19 -6.9 19.6 74 -10.8 12.6 -93.1 -3.665
06:38 1024 30.24 853 25.19 -6.8 19.8 73 -10.8 12.6 -93.1 -3.665
06:39 1024 30.24 853 25.19 -6.7 19.9 74 -10.7 12.8 -93.1 -3.665
06:40 1024 30.24 853 25.19 -6.6 20 73 -10.7 12.7 -93.1 -3.665
06:41 1024 30.24 853 25.19 -6.6 20.2 73 -10.7 12.8 -93.1 -3.665
06:42 1024 30.24 853 25.19 -6.5 20.4 72 -10.6 12.8 -93.1 -3.665
06:43 1024 30.24 853 25.19 -6.4 20.6 72 -10.6 12.9 -93.1 -3.665
06:44 1024 30.24 853 25.19 -6.2 20.8 72 -10.5 13.1 -93.1 -3.665
06:45 1024 30.24 853 25.19 -6.2 20.9 71 -10.5 13 -93.1 -3.665
06:46 1024 30.24 853 25.19 -6.1 21 71 -10.5 13.1 -93.1 -3.665
06:47 1024 30.24 853 25.19 -6.1 21.1 71 -10.5 13.2 -93.1 -3.665
06:48 1024 30.24 853 25.19 -6 21.1 72 -10.4 13.3 -93.1 -3.665
06:49 1024 30.24 853 25.19 -6 21.2 72 -10.3 13.4 -93.1 -3.665
06:50 1024 30.24 853 25.19 -5.9 21.3 71 -10.3 13.4 -93.1 -3.665
06:51 1024 30.24 853 25.19 -5.9 21.4 71 -10.3 13.5 -93.1 -3.665
06:52 1024 30.24 853 25.19 -5.8 21.5 71 -10.2 13.6 -93.1 -3.665
06:53 1024 30.24 853 25.19 -5.8 21.6 71 -10.2 13.7 -93.1 -3.665
06:54 1024 30.24 853 25.19 -5.7 21.7 71 -10.1 13.7 -93 -3.661
06:55 1024 30.24 853 25.19 -5.7 21.8 71 -10.1 13.9 -93 -3.661
06:56 1024 30.24 853 25.19 -5.7 21.8 72 -10 13.9 -93 -3.661
06:57 1024 30.24 853 25.19 -5.7 21.8 72 -10 14 -93 -3.661
06:58 1024 30.24 853 25.19 -5.7 21.7 71 -10.1 13.8 -93 -3.661
06:59 1024 30.24 853 25.19 -5.7 21.7 71 -10.1 13.8 -93 -3.661
07:00 1024 30.24 853 25.19 -5.7 21.8 71 -10.1 13.9 -93 -3.661
07:01 1024 30.24 853 25.19 -5.7 21.8 71 -10.1 13.9 -93 -3.661
07:02 1024 30.24 853 25.19 -5.7 21.8 71 -10.1 13.8 -93 -3.661
07:03 1024 30.24 853 25.19 -5.7 21.7 71 -10.1 13.8 -93 -3.661
07:04 1024 30.24 853 25.19 -5.7 21.7 71 -10.1 13.7 -93 -3.661
07:05 1024 30.24 853 25.19 -5.8 21.6 71 -10.2 13.6 -93 -3.661
07:06 1024 30.24 853 25.19 -5.8 21.6 71 -10.2 13.6 -93 -3.661
07:07 1024 30.24 853 25.19 -5.8 21.6 71 -10.2 13.6 -93 -3.661
07:08 1024 30.24 853 25.19 -5.8 21.6 71 -10.2 13.6 -93 -3.661
07:09 1024 30.24 853 25.19 -5.7 21.7 71 -10.3 13.5 -93 -3.661
07:10 1024 30.24 853 25.19 -5.7 21.7 70 -10.3 13.5 -93 -3.661
07:11 1024 30.24 853 25.19 -5.7 21.8 70 -10.4 13.3 -93 -3.661
07:12 1024 30.24 853 25.19 -5.6 21.9 70 -10.3 13.5 -93 -3.661
07:13 1024 30.24 853 25.19 -5.5 22.1 69 -10.2 13.6 -93 -3.661
07:14 1024 30.24 853 25.19 -5.5 22.1 70 -10.2 13.7 -93 -3.661
07:15 1024 30.24 853 25.19 -5.5 22.1 70 -10.2 13.7 -93 -3.661
07:16 1024 30.24 853 25.19 -5.5 22.1 71 -10.1 13.9 -93 -3.661
07:17 1024 30.24 853 25.19 -5.5 22.1 70 -10.1 13.7 -93 -3.661
07:18 1024 30.24 853 25.19 -5.5 22.1 70 -10.2 13.6 -93 -3.661
07:19 1024 30.24 853 25.19 -5.4 22.2 70 -10.1 13.9 -93 -3.661
07:20 1024 30.24 853 25.19 -5.4 22.3 70 -10 14 -93 -3.661
07:21 1024 30.24 853 25.19 -5.4 22.4 71 -9.9 14.2 -93 -3.661
07:22 1024 30.24 853 25.19 -5.4 22.4 71 -9.9 14.2 -93 -3.661
07:23 1024 30.24 853 25.19 -5.3 22.4 71 -9.9 14.2 -93 -3.661
07:24 1024 30.24 853 25.19 -5.4 22.3 71 -9.8 14.3 -93 -3.661
07:25 1024 30.24 853 25.19 -5.4 22.3 71 -9.8 14.3 -93 -3.661
07:26 1024 30.24 853 25.19 -5.4 22.3 72 -9.7 14.5 -93 -3.661
07:27 1024 30.24 853 25.19 -5.4 22.2 72 -9.7 14.5 -93 -3.661
07:28 1024 30.24 853 25.19 -5.4 22.2 72 -9.8 14.4 -93 -3.661
07:29 1024 30.24 853 25.19 -5.4 22.3 71 -9.9 14.1 -93 -3.661
07:30 1024 30.24 853 25.19 -5.3 22.4 71 -9.8 14.3 -93 -3.661
07:31 1024 30.24 853 25.19 -5.3 22.5 71 -9.8 14.3 -93 -3.661
07:32 1024 30.24 853 25.19 -5.2 22.6 70 -9.9 14.2 -93 -3.661
07:33 1024 30.24 853 25.19 -5.2 22.6 70 -9.9 14.1 -93 -3.661
07:34 1024 30.24 853 25.19 -5.2 22.7 70 -9.9 14.2 -93 -3.661
07:35 1024 30.24 853 25.19 -5.1 22.8 70 -9.8 14.4 -93 -3.661
07:36 1024 30.24 853 25.19 -5.1 22.8 71 -9.6 14.6 -93 -3.661
07:37 1024 30.24 853 25.19 -5.1 22.9 70 -9.6 14.6 -93 -3.661
07:38 1024 30.24 853 25.19 -5.1 22.9 71 -9.5 14.9 -93 -3.661
07:39 1024 30.24 853 25.19 -5 22.9 71 -9.6 14.8 -92.9 -3.657
07:40 1024 30.24 853 25.19 -5 22.9 71 -9.6 14.8 -92.9 -3.657
07:41 1024 30.24 853 25.19 -5 23 70 -9.6 14.7 -92.9 -3.657
07:42 1024 30.24 853 25.19 -5 23.1 70 -9.5 14.8 -92.9 -3.657
07:43 1024 30.24 853 25.19 -4.9 23.2 70 -9.6 14.7 -92.9 -3.657
07:44 1024 30.24 853 25.19 -4.9 23.3 69 -9.6 14.6 -92.9 -3.657
07:45 1024 30.24 853 25.19 -4.8 23.4 68 -9.7 14.5 -92.9 -3.657
07:46 1024 30.24 853 25.19 -4.7 23.6 69 -9.5 14.9 -92.9 -3.657
07:47 1024 30.24 853 25.19 -4.8 23.4 70 -9.4 15.1 -92.9 -3.657
07:48 1024 30.24 853 25.19 -4.9 23.2 70 -9.6 14.8 -92.9 -3.657
07:49 1024 30.24 853 25.19 -5 23 70 -9.6 14.7 -92.9 -3.657
07:50 1024 30.24 853 25.19 -5.1 22.8 70 -9.7 14.5 -92.9 -3.657
07:51 1024 30.24 853 25.19 -5.2 22.7 71 -9.6 14.6 -92.9 -3.657
07:52 1024 30.24 853 25.19 -5.2 22.6 71 -9.6 14.7 -92.9 -3.657
07:53 1024 30.24 853 25.19 -5.3 22.5 71 -9.7 14.5 -92.9 -3.657
07:54 1024 30.24 853 25.19 -5.4 22.3 72 -9.6 14.7 -92.9 -3.657
07:55 1024 30.24 853 25.19 -5.4 22.2 74 -9.4 15.1 -92.9 -3.657
07:56 1024 30.24 853 25.19 -5.4 22.2 74 -9.4 15.1 -92.9 -3.657
07:57 1024 30.24 853 25.19 -5.4 22.2 72 -9.7 14.6 -92.9 -3.657
07:58 1024 30.24 853 25.19 -5.4 22.3 72 -9.7 14.6 -92.9 -3.657
07:59 1024 30.24 853 25.19 -5.4 22.4 71 -9.8 14.4 -92.9 -3.657
08:00 1024 30.24 853 25.19 -5.2 22.6 71 -9.7 14.6 -92.9 -3.657
08:01 1024 30.24 853 25.19 -5.2 22.6 71 -9.8 14.4 -92.9 -3.657
08:02 1024 30.24 853 25.19 -5.2 22.6 71 -9.7 14.5 -92.9 -3.657
08:03 1024 30.24 853 25.19 -5.2 22.7 72 -9.5 14.9 -92.9 -3.657
08:04 1024 30.24 853 25.19 -5.2 22.6 72 -9.5 14.9 -92.9 -3.657
08:05 1024 30.24 853 25.19 -5.4 22.3 72 -9.6 14.7 -92.9 -3.657
08:06 1024 30.24 853 25.19 -5.6 22 73 -9.7 14.6 -92.9 -3.657
08:07 1024 30.24 853 25.19 -5.7 21.7 73 -9.8 14.3 -92.9 -3.657
08:08 1024 30.24 853 25.19 -5.8 21.6 74 -9.8 14.4 -92.9 -3.657
08:09 1024 30.24 853 25.19 -5.8 21.5 74 -9.7 14.5 -92.9 -3.657
08:10 1024 30.24 853 25.19 -5.9 21.3 75 -9.6 14.7 -92.9 -3.657
08:11 1024 30.24 853 25.19 -6 21.2 76 -9.6 14.6 -92.9 -3.657
08:12 1024 30.24 853 25.19 -6.1 21.1 76 -9.7 14.6 -92.9 -3.657
08:13 1024 30.24 853 25.19 -6.1 20.9 75 -9.9 14.1 -92.9 -3.657
08:14 1024 30.24 853 25.19 -6.2 20.8 74 -10.1 13.9 -92.9 -3.657
08:15 1024 30.24 853 25.19 -6.2 20.8 75 -10.1 13.9 -92.9 -3.657
08:16 1024 30.24 853 25.19 -6.3 20.7 75 -10.1 13.8 -92.9 -3.657
08:17 1024 30.24 853 25.19 -6.3 20.7 75 -10.1 13.9 -92.9 -3.657
08:18 1024 30.24 853 25.19 -6.3 20.7 75 -10 13.9 -92.9 -3.657
08:19 1024 30.24 853 25.19 -6.3 20.7 75 -10.1 13.9 -92.9 -3.657
08:20 1024 30.24 853 25.19 -6.3 20.7 75 -10 13.9 -92.9 -3.657
08:21 1024 30.24 853 25.19 -6.2 20.8 75 -10 14 -92.9 -3.657
08:22 1024 30.24 853 25.19 -6.2 20.8 75 -10 14.1 -92.9 -3.657
08:23 1024 30.24 853 25.19 -6.2 20.8 75 -10 14 -92.9 -3.657
08:24 1024 30.24 853 25.19 -6.2 20.9 75 -10 14.1 -92.9 -3.657
08:25 1024 30.24 853 25.19 -6.2 20.9 75 -10 14.1 -92.9 -3.657
08:26 1024 30.24 853 25.19 -6.1 20.9 75 -9.9 14.1 -92.9 -3.657
08:27 1024 30.24 853 25.19 -6.1 21 75 -9.9 14.2 -92.9 -3.657
08:28 1024 30.24 853 25.19 -6.1 21.1 75 -9.8 14.4 -92.9 -3.657
08:29 1024 30.24 853 25.19 -6 21.2 75 -9.7 14.5 -92.9 -3.657
08:30 1024 30.24 853 25.19 -6 21.2 75 -9.7 14.6 -92.9 -3.657
08:31 1024 30.24 853 25.19 -6 21.2 75 -9.7 14.6 -92.9 -3.657
08:32 1024 30.24 853 25.19 -6 21.2 75 -9.7 14.5 -92.9 -3.657
08:33 1024 30.24 853 25.19 -6 21.3 74 -9.8 14.3 -92.9 -3.657
08:34 1024 30.24 853 25.19 -5.9 21.3 75 -9.7 14.5 -92.9 -3.657
08:35 1024 30.24 853 25.19 -5.9 21.4 75 -9.6 14.7 -92.9 -3.657
08:36 1024 30.24 853 25.19 -5.9 21.4 76 -9.5 14.9 -92.9 -3.657
08:37 1024 30.24 853 25.19 -5.9 21.4 75 -9.7 14.6 -92.9 -3.657
08:38 1024 30.24 853 25.19 -5.9 21.5 75 -9.7 14.6 -92.9 -3.657
08:39 1024 30.24 853 25.19 -5.8 21.5 75 -9.6 14.7 -92.9 -3.657
08:40 1024 30.24 853 25.19 -5.8 21.6 75 -9.5 14.9 -92.9 -3.657
08:41 1024 30.24 853 25.19 -5.8 21.6 75 -9.5 14.8 -92.9 -3.657
08:42 1024 30.24 853 25.19 -5.7 21.7 75 -9.4 15.1 -92.9 -3.657
08:43 1024 30.24 853 25.19 -5.7 21.8 75 -9.4 15 -92.9 -3.657
08:44 1024 30.24 853 25.19 -5.6 21.9 76 -9.2 15.4 -92.9 -3.657
08:45 1024 30.24 853 25.19 -5.6 22 75 -9.3 15.3 -92.9 -3.657
08:46 1024 30.24 853 25.19 -5.6 22 74 -9.4 15.1 -92.9 -3.657
08:47 1024 30.24 853 25.19 -5.5 22.1 76 -9.1 15.6 -92.9 -3.657
08:48 1024 30.24 853 25.19 -5.4 22.2 76 -9 15.8 -92.9 -3.657
08:49 1024 30.24 853 25.19 -5.4 22.3 75 -9.2 15.5 -92.9 -3.657
08:50 1024 30.24 853 25.19 -5.4 22.3 75 -9.2 15.4 -92.9 -3.657
08:51 1024 30.24 853 25.19 -5.4 22.3 74 -9.4 15.1 -92.9 -3.657
08:52 1024 30.24 853 25.19 -5.4 22.3 74 -9.3 15.2 -92.9 -3.657
08:53 1024 30.24 853 25.19 -5.3 22.4 74 -9.3 15.2 -92.9 -3.657
08:54 1024 30.24 853 25.19 -5.3 22.5 72 -9.5 14.9 -92.9 -3.657
08:55 1024 30.24 853 25.19 -5.3 22.5 73 -9.4 15 -92.9 -3.657
08:56 1024 30.24 853 25.19 -5.2 22.6 72 -9.5 14.9 -92.9 -3.657
08:57 1024 30.24 853 25.19 -5.3 22.5 70 -9.8 14.3 -92.9 -3.657
08:58 1024 30.24 853 25.19 -5.2 22.6 70 -9.8 14.3 -92.9 -3.657
08:59 1024 30.24 854 25.22 -5.1 22.7 71 -9.7 14.6 -92.9 -3.657
09:00 1024 30.24 854 25.22 -5.1 22.8 71 -9.5 14.9 -92.9 -3.657
09:01 1024 30.24 854 25.22 -5 23 71 -9.5 14.8 -92.9 -3.657
09:02 1024 30.24 853 25.19 -5 23 70 -9.7 14.6 -92.9 -3.657
09:03 1024 30.24 854 25.22 -4.9 23.1 69 -9.7 14.5 -92.9 -3.657
09:04 1024 30.24 854 25.22 -4.9 23.2 70 -9.6 14.8 -92.9 -3.657
09:05 1024 30.24 854 25.22 -4.9 23.2 71 -9.4 15.1 -92.9 -3.657
09:06 1024 30.24 854 25.22 -4.8 23.3 71 -9.4 15.1 -92.9 -3.657
09:07 1024 30.24 854 25.22 -4.8 23.3 70 -9.5 14.8 -92.9 -3.657
09:08 1024 30.24 854 25.22 -4.8 23.3 71 -9.3 15.2 -92.9 -3.657
09:09 1024 30.24 854 25.22 -4.8 23.4 72 -9.1 15.6 -92.9 -3.657
09:10 1024 30.24 854 25.22 -4.8 23.4 71 -9.2 15.4 -92.9 -3.657
09:11 1024 30.24 854 25.22 -4.8 23.4 71 -9.2 15.5 -92.9 -3.657
09:12 1024 30.24 854 25.22 -4.7 23.5 70 -9.3 15.3 -92.9 -3.657
09:13 1024 30.24 854 25.22 -4.7 23.6 70 -9.3 15.2 -92.9 -3.657
09:14 1024 30.24 854 25.22 -4.7 23.6 72 -9.1 15.7 -92.9 -3.657
09:15 1024 30.24 854 25.22 -4.6 23.7 70 -9.2 15.4 -92.9 -3.657
09:16 1024 30.24 854 25.22 -4.7 23.6 70 -9.2 15.4 -92.9 -3.657
09:17 1024 30.24 854 25.22 -4.7 23.6 70 -9.3 15.2 -92.9 -3.657
09:18 1024 30.24 854 25.22 -4.7 23.6 71 -9.2 15.4 -92.9 -3.657
09:19 1024 30.24 854 25.22 -4.6 23.7 70 -9.3 15.3 -92.9 -3.657
09:20 1024 30.24 854 25.22 -4.6 23.7 71 -9.1 15.5 -92.9 -3.657
09:21 1024 30.24 854 25.22 -4.5 23.8 71 -9.1 15.6 -92.8 -3.654
09:22 1024 30.24 854 25.22 -4.5 23.9 69 -9.4 15 -92.8 -3.654
09:23 1024 30.24 854 25.22 -4.5 24 68 -9.5 14.9 -92.8 -3.654
09:24 1024 30.24 854 25.22 -4.4 24.1 69 -9.3 15.2 -92.8 -3.654
09:25 1024 30.24 854 25.22 -4.4 24.1 68 -9.4 15.1 -92.8 -3.654
09:26 1024 30.24 853 25.19 -4.2 24.4 68 -9.2 15.4 -92.8 -3.654
09:27 1024 30.24 854 25.22 -4.2 24.4 67 -9.5 14.9 -92.8 -3.654
09:28 1024 30.24 854 25.22 -4.2 24.4 69 -9.1 15.6 -92.8 -3.654
09:29 1024 30.24 854 25.22 -4.2 24.4 69 -9.2 15.5 -92.8 -3.654
09:30 1024 30.24 854 25.22 -4.2 24.5 69 -9.1 15.5 -92.8 -3.654
09:31 1024 30.24 854 25.22 -4.1 24.6 68 -9.2 15.5 -92.8 -3.654
09:32 1024 30.24 854 25.22 -4.1 24.7 67 -9.4 15.2 -92.8 -3.654
09:33 1024 30.24 854 25.22 -4 24.8 68 -9.1 15.7 -92.8 -3.654
09:34 1024 30.24 854 25.22 -3.9 24.9 66 -9.3 15.2 -92.8 -3.654
09:35 1024 30.24 854 25.22 -3.8 25.2 65 -9.5 15 -92.8 -3.654
09:36 1024 30.24 854 25.22 -3.7 25.3 64 -9.6 14.6 -92.8 -3.654
09:37 1024 30.24 854 25.22 -3.6 25.5 64 -9.5 14.9 -92.8 -3.654
09:38 1024 30.24 854 25.22 -3.5 25.7 63 -9.6 14.7 -92.8 -3.654
09:39 1024 30.24 854 25.22 -3.4 25.9 64 -9.3 15.3 -92.8 -3.654
09:40 1024 30.24 854 25.22 -3.3 26.1 64 -9.2 15.5 -92.8 -3.654
09:41 1024 30.24 854 25.22 -3.2 26.2 64 -9.2 15.4 -92.8 -3.654
09:42 1024 30.24 854 25.22 -3.1 26.4 63 -9.1 15.6 -92.8 -3.654
09:43 1024 30.24 854 25.22 -3 26.6 62 -9.3 15.3 -92.8 -3.654
09:44 1024 30.24 854 25.22 -3 26.6 62 -9.2 15.4 -92.8 -3.654
09:45 1024 30.24 854 25.22 -3 26.5 64 -8.9 16 -92.8 -3.654
09:46 1024 30.24 854 25.22 -3 26.6 64 -8.8 16.1 -92.8 -3.654
09:47 1024 30.24 853 25.19 -3 26.5 65 -8.6 16.5 -92.8 -3.654
09:48 1024 30.24 853 25.19 -3.1 26.5 65 -8.7 16.4 -92.8 -3.654
09:49 1024 30.24 853 25.19 -3.1 26.5 63 -9.1 15.7 -92.8 -3.654
09:50 1024 30.24 853 25.19 -3.1 26.5 64 -9 15.8 -92.8 -3.654
09:51 1024 30.24 853 25.19 -3.1 26.5 63 -9.2 15.4 -92.8 -3.654
09:52 1024 30.24 853 25.19 -3 26.6 62 -9.3 15.2 -92.8 -3.654
09:53 1024 30.24 853 25.19 -3 26.7 64 -8.8 16.2 -92.8 -3.654
09:54 1024 30.24 853 25.19 -2.9 26.7 66 -8.4 16.8 -92.8 -3.654
09:55 1024 30.24 854 25.22 -2.9 26.8 64 -8.9 16.1 -92.8 -3.654
09:56 1024 30.24 853 25.19 -2.8 26.9 64 -8.6 16.5 -92.7 -3.65
09:57 1024 30.24 854 25.22 -2.8 27 65 -8.6 16.6 -92.7 -3.65
09:58 1024 30.24 854 25.22 -2.7 27.1 65 -8.5 16.8 -92.7 -3.65
09:59 1024 30.24 854 25.22 -2.7 27.1 63 -8.8 16.2 -92.7 -3.65
10:00 1024 30.24 854 25.22 -2.7 27.2 62 -9 15.9 -92.7 -3.65
10:01 1024 30.24 854 25.22 -2.6 27.3 65 -8.3 17 -92.7 -3.65
10:02 1024 30.24 854 25.22 -2.6 27.3 65 -8.2 17.2 -92.7 -3.65
10:03 1024 30.24 854 25.22 -2.6 27.4 63 -8.6 16.4 -92.7 -3.65
10:04 1024 30.24 854 25.22 -2.6 27.4 63 -8.6 16.5 -92.7 -3.65
10:05 1024 30.24 854 25.22 -2.5 27.5 63 -8.6 16.5 -92.7 -3.65
10:06 1024 30.24 854 25.22 -2.5 27.4 63 -8.7 16.4 -92.7 -3.65
10:07 1024 30.24 854 25.22 -2.5 27.5 63 -8.7 16.4 -92.7 -3.65
10:08 1024 30.24 854 25.22 -2.5 27.4 63 -8.6 16.4 -92.7 -3.65
10:09 1024 30.24 854 25.22 -2.5 27.4 61 -9 15.8 -92.7 -3.65
10:10 1024 30.24 854 25.22 -2.6 27.4 63 -8.6 16.5 -92.7 -3.65
10:11 1024 30.24 854 25.22 -2.6 27.3 64 -8.5 16.6 -92.7 -3.65
10:12 1024 30.24 854 25.22 -2.6 27.3 64 -8.6 16.6 -92.7 -3.65
10:13 1024 30.24 854 25.22 -2.6 27.4 63 -8.6 16.5 -92.7 -3.65
10:14 1024 30.24 854 25.22 -2.6 27.3 63 -8.7 16.4 -92.7 -3.65
10:15 1024 30.24 854 25.22 -2.6 27.3 64 -8.5 16.8 -92.7 -3.65
10:16 1024 30.24 854 25.22 -2.6 27.3 65 -8.3 17 -92.7 -3.65
10:17 1024 30.24 854 25.22 -2.6 27.4 63 -8.7 16.4 -92.7 -3.65
10:18 1024 30.24 854 25.22 -2.6 27.4 63 -8.7 16.3 -92.7 -3.65
10:19 1024 30.24 854 25.22 -2.6 27.4 63 -8.7 16.4 -92.6 -3.646
10:20 1024 30.24 854 25.22 -2.6 27.4 62 -8.8 16.1 -92.6 -3.646
10:21 1024 30.24 853 25.19 -2.6 27.4 64 -8.4 16.8 -92.6 -3.646
10:22 1024 30.24 853 25.19 -2.6 27.4 62 -8.9 16 -92.6 -3.646
10:23 1024 30.24 853 25.19 -2.5 27.5 61 -9.1 15.6 -92.6 -3.646
10:24 1024 30.24 853 25.19 -2.5 27.5 63 -8.7 16.4 -92.6 -3.646
10:25 1024 30.24 854 25.22 -2.5 27.5 64 -8.4 16.9 -92.6 -3.646
10:26 1024 30.24 854 25.22 -2.5 27.5 63 -8.6 16.5 -92.6 -3.646
10:27 1024 30.24 854 25.22 -2.5 27.5 63 -8.5 16.6 -92.6 -3.646
10:28 1024 30.24 854 25.22 -2.6 27.4 63 -8.7 16.3 -92.6 -3.646
10:29 1024 30.24 854 25.22 -2.6 27.3 62 -8.9 15.9 -92.6 -3.646
10:30 1024 30.24 854 25.22 -2.6 27.3 64 -8.6 16.5 -92.6 -3.646
10:31 1024 30.24 854 25.22 -2.6 27.3 62 -8.8 16.1 -92.6 -3.646
10:32 1024 30.24 853 25.19 -2.6 27.3 64 -8.4 16.8 -92.6 -3.646
10:33 1024 30.24 853 25.19 -2.6 27.3 64 -8.5 16.6 -92.6 -3.646
10:34 1024 30.24 853 25.19 -2.6 27.4 64 -8.4 16.9 -92.6 -3.646
10:35 1024 30.24 854 25.22 -2.5 27.4 62 -8.9 16 -92.6 -3.646
10:36 1024 30.24 854 25.22 -2.6 27.4 64 -8.5 16.8 -92.6 -3.646
10:37 1024 30.24 854 25.22 -2.5 27.4 62 -8.9 15.9 -92.6 -3.646
10:38 1024 30.24 854 25.22 -2.5 27.5 63 -8.6 16.5 -92.6 -3.646
10:39 1024 30.24 854 25.22 -2.5 27.5 62 -8.8 16.2 -92.6 -3.646
10:40 1024 30.24 854 25.22 -2.5 27.5 62 -8.9 16 -92.6 -3.646
10:41 1024 30.24 854 25.22 -2.5 27.5 62 -8.7 16.3 -92.6 -3.646
10:42 1024 30.24 854 25.22 -2.5 27.5 62 -8.8 16.2 -92.6 -3.646
10:43 1024 30.24 854 25.22 -2.5 27.6 65 -8.2 17.2 -92.6 -3.646
10:44 1024 30.24 854 25.22 -2.5 27.6 64 -8.3 17 -92.5 -3.642
10:45 1024 30.24 853 25.19 -2.4 27.7 66 -8 17.7 -92.5 -3.642
10:46 1024 30.24 853 25.19 -2.4 27.6 65 -8.1 17.4 -92.5 -3.642
10:47 1024 30.24 853 25.19 -2.3 27.8 65 -8.1 17.4 -92.5 -3.642
10:48 1024 30.24 853 25.19 -2.3 27.8 65 -8 17.6 -92.5 -3.642
10:49 1024 30.24 853 25.19 -2.3 27.9 65 -8.1 17.5 -92.5 -3.642
10:50 1024 30.24 853 25.19 -2.2 28 65 -7.9 17.7 -92.5 -3.642
10:51 1024 30.24 853 25.19 -2.2 28.1 67 -7.6 18.3 -92.5 -3.642
10:52 1024 30.24 853 25.19 -2.1 28.2 66 -7.6 18.4 -92.5 -3.642
10:53 1024 30.24 853 25.19 -2.1 28.2 66 -7.7 18.2 -92.5 -3.642
10:54 1024 30.24 853 25.19 -2.1 28.3 64 -8 17.6 -92.5 -3.642
10:55 1024 30.24 853 25.19 -2.1 28.2 66 -7.6 18.4 -92.5 -3.642
10:56 1024 30.24 853 25.19 -2.1 28.2 65 -7.9 17.9 -92.5 -3.642
10:57 1024 30.24 853 25.19 -2.1 28.2 64 -8.1 17.4 -92.5 -3.642
10:58 1024 30.24 853 25.19 -2.1 28.2 64 -8 17.5 -92.5 -3.642
10:59 1024 30.24 853 25.19 -2.1 28.2 65 -7.9 17.8 -92.5 -3.642
11:00 1024 30.24 853 25.19 -2.1 28.2 64 -8 17.5 -92.5 -3.642
11:01 1024 30.24 853 25.19 -2.1 28.2 64 -8 17.5 -92.5 -3.642
11:02 1024 30.24 853 25.19 -2.1 28.2 65 -7.9 17.8 -92.5 -3.642
11:03 1024 30.24 853 25.19 -2.1 28.3 67 -7.5 18.6 -92.5 -3.642
11:04 1024 30.24 853 25.19 -2 28.4 66 -7.6 18.3 -92.5 -3.642
11:05 1024 30.24 853 25.19 -1.9 28.5 67 -7.2 19 -92.5 -3.642
11:06 1024 30.24 853 25.19 -1.9 28.6 64 -7.8 18 -92.5 -3.642
11:07 1024 30.24 853 25.19 -1.8 28.7 65 -7.6 18.3 -92.4 -3.638
11:08 1024 30.24 853 25.19 -1.8 28.8 64 -7.6 18.3 -92.4 -3.638
11:09 1024 30.24 853 25.19 -1.7 28.9 66 -7.3 18.9 -92.4 -3.638
11:10 1024 30.24 853 25.19 -1.7 29 67 -7.1 19.2 -92.4 -3.638
11:11 1024 30.24 853 25.19 -1.6 29.1 66 -7.2 19.1 -92.4 -3.638
11:12 1024 30.24 853 25.19 -1.6 29.2 64 -7.5 18.4 -92.4 -3.638
11:13 1024 30.24 853 25.19 -1.5 29.3 64 -7.4 18.6 -92.4 -3.638
11:14 1024 30.24 853 25.19 -1.5 29.3 68 -6.7 19.9 -92.4 -3.638
11:15 1024 30.24 853 25.19 -1.5 29.3 65 -7.2 19 -92.4 -3.638
11:16 1024 30.24 853 25.19 -1.5 29.4 66 -7.1 19.3 -92.4 -3.638
11:17 1024 30.24 853 25.19 -1.5 29.4 66 -7.1 19.2 -92.4 -3.638
11:18 1024 30.24 853 25.19 -1.4 29.4 64 -7.4 18.7 -92.4 -3.638
11:19 1024 30.24 853 25.19 -1.5 29.4 66 -7.1 19.3 -92.4 -3.638
11:20 1024 30.24 853 25.19 -1.4 29.5 65 -7.1 19.2 -92.4 -3.638
11:21 1024 30.24 853 25.19 -1.3 29.6 65 -7 19.4 -92.4 -3.638
11:22 1024 30.24 853 25.19 -1.3 29.7 62 -7.6 18.2 -92.4 -3.638
11:23 1024 30.24 853 25.19 -1.3 29.7 61 -7.9 17.8 -92.4 -3.638
11:24 1024 30.24 853 25.19 -1.4 29.5 63 -7.5 18.4 -92.4 -3.638
11:25 1024 30.24 853 25.19 -1.4 29.5 63 -7.5 18.4 -92.4 -3.638
11:26 1024 30.24 853 25.19 -1.4 29.5 63 -7.6 18.4 -92.4 -3.638
11:27 1024 30.24 853 25.19 -1.4 29.5 60 -8.1 17.3 -92.3 -3.634
11:28 1024 30.24 853 25.19 -1.4 29.5 63 -7.6 18.3 -92.3 -3.634
11:29 1024 30.24 853 25.19 -1.3 29.6 63 -7.6 18.4 -92.3 -3.634
11:30 1024 30.24 853 25.19 -1.2 29.8 62 -7.6 18.3 -92.3 -3.634
11:31 1024 30.24 853 25.19 -1.1 30 62 -7.5 18.5 -92.3 -3.634
11:32 1024 30.24 853 25.19 -1 30.1 60 -7.9 17.7 -92.3 -3.634
11:33 1024 30.24 853 25.19 -0.9 30.3 58 -8.2 17.2 -92.3 -3.634
11:34 1024 30.24 853 25.19 -0.9 30.3 60 -7.7 18.2 -92.3 -3.634
11:35 1024 30.24 853 25.19 -1 30.2 61 -7.6 18.3 -92.3 -3.634
11:36 1024 30.24 853 25.19 -1.1 29.9 64 -7.1 19.3 -92.3 -3.634
11:37 1024 30.24 853 25.19 -1.2 29.9 61 -7.8 17.9 -92.3 -3.634
11:38 1024 30.24 853 25.19 -1.1 29.9 61 -7.7 18.1 -92.3 -3.634
11:39 1024 30.24 853 25.19 -1.1 30.1 61 -7.7 18.2 -92.3 -3.634
11:40 1024 30.24 853 25.19 -1.1 30 62 -7.6 18.4 -92.4 -3.638
11:41 1024 30.24 853 25.19 -1.2 29.8 60 -8.1 17.4 -92.4 -3.638
11:42 1024 30.24 853 25.19 -1.3 29.6 61 -8 17.6 -92.4 -3.638
11:43 1024 30.24 853 25.19 -1.4 29.5 62 -7.7 18.2 -92.4 -3.638
11:44 1024 30.24 853 25.19 -1.4 29.5 63 -7.4 18.6 -92.3 -3.634
11:45 1024 30.24 853 25.19 -1.3 29.6 64 -7.2 19 -92.3 -3.634
11:46 1024 30.24 853 25.19 -1.3 29.7 62 -7.7 18.1 -92.3 -3.634
11:47 1024 30.24 853 25.19 -1.3 29.6 62 -7.7 18.1 -92.3 -3.634
11:48 1024 30.24 853 25.19 -1.3 29.7 61 -8 17.6 -92.3 -3.634
11:49 1023 30.21 853 25.19 -1.3 29.6 63 -7.5 18.5 -92.3 -3.634
11:50 1023 30.21 853 25.19 -1.4 29.5 64 -7.4 18.6 -92.3 -3.634
11:51 1023 30.21 853 25.19 -1.5 29.3 64 -7.5 18.5 -92.3 -3.634
11:52 1023 30.21 853 25.19 -1.4 29.4 64 -7.4 18.8 -92.3 -3.634
11:53 1023 30.21 853 25.19 -1.4 29.4 64 -7.4 18.7 -92.3 -3.634
11:54 1023 30.21 853 25.19 -1.4 29.4 62 -7.8 18 -92.3 -3.634
11:55 1023 30.21 853 25.19 -1.5 29.3 62 -7.9 17.8 -92.3 -3.634
11:56 1023 30.21 853 25.19 -1.5 29.3 62 -7.8 17.9 -92.3 -3.634
11:57 1023 30.21 853 25.19 -1.4 29.4 64 -7.4 18.7 -92.3 -3.634
11:58 1023 30.21 853 25.19 -1.4 29.5 64 -7.4 18.8 -92.3 -3.634
11:59 1023 30.21 853 25.19 -1.4 29.5 62 -7.8 18 -92.3 -3.634
12:00 1023 30.21 853 25.19 -1.4 29.5 65 -7 19.3 -92.3 -3.634
12:01 1023 30.21 852 25.16 -1.4 29.4 66 -7 19.5 -92.2 -3.63
12:02 1023 30.21 852 25.16 -1.5 29.4 66 -7 19.5 -92.2 -3.63
12:03 1023 30.21 852 25.16 -1.4 29.4 64 -7.3 18.8 -92.2 -3.63
12:04 1023 30.21 852 25.16 -1.5 29.3 67 -6.9 19.5 -92.2 -3.63
12:05 1023 30.21 852 25.16 -1.4 29.4 62 -7.9 17.8 -92.2 -3.63
12:06 1023 30.21 852 25.16 -1.4 29.4 63 -7.5 18.5 -92.2 -3.63
12:07 1023 30.21 852 25.16 -1.4 29.5 66 -6.9 19.5 -92.2 -3.63
12:08 1023 30.21 852 25.16 -1.4 29.6 65 -7.1 19.3 -92.2 -3.63
12:09 1023 30.21 852 25.16 -1.4 29.5 64 -7.2 19 -92.2 -3.63
12:10 1023 30.21 852 25.16 -1.3 29.6 65 -7.2 19.1 -92.2 -3.63
12:11 1023 30.21 852 25.16 -1.2 29.9 63 -7.4 18.8 -92.2 -3.63
12:12 1023 30.21 852 25.16 -1.2 29.9 61 -7.7 18.1 -92.2 -3.63
12:13 1023 30.21 852 25.16 -1.2 29.9 64 -7 19.3 -92.2 -3.63
12:14 1023 30.21 852 25.16 -1.1 30 63 -7.4 18.7 -92.2 -3.63
12:15 1023 30.21 852 25.16 -1.1 30.1 64 -7.1 19.3 -92.2 -3.63
12:16 1023 30.21 852 25.16 -1 30.1 64 -7 19.4 -92.2 -3.63
12:17 1023 30.21 852 25.16 -1.1 30.1 64 -7 19.5 -92.2 -3.63
12:18 1023 30.21 852 25.16 -1.1 30.1 65 -6.8 19.8 -92.2 -3.63
12:19 1023 30.21 852 25.16 -1.1 30 63 -7.2 19.1 -92.2 -3.63
12:20 1023 30.21 852 25.16 -1.1 30 61 -7.6 18.3 -92.2 -3.63
12:21 1023 30.21 852 25.16 -1.1 30 60 -7.9 17.9 -92.2 -3.63
12:22 1023 30.21 852 25.16 -1 30.2 60 -7.8 18 -92.2 -3.63
12:23 1023 30.21 852 25.16 -0.9 30.4 61 -7.6 18.4 -92.2 -3.63
12:24 1023 30.21 852 25.16 -0.8 30.6 59 -7.7 18.1 -92.2 -3.63
12:25 1023 30.21 852 25.16 -0.7 30.7 59 -7.9 17.8 -92.2 -3.63
12:26 1023 30.21 852 25.16 -0.6 30.9 58 -8 17.7 -92.2 -3.63
12:27 1023 30.21 852 25.16 -0.5 31.1 58 -7.8 18 -92.2 -3.63
12:28 1023 30.21 852 25.16 -0.4 31.3 57 -7.8 17.9 -92.2 -3.63
12:29 1023 30.21 852 25.16 -0.3 31.4 57 -7.9 17.8 -92.2 -3.63
12:30 1023 30.21 852 25.16 -0.3 31.5 58 -7.6 18.3 -92.2 -3.63
12:31 1023 30.21 852 25.16 -0.3 31.5 58 -7.6 18.3 -92.2 -3.63
12:32 1023 30.21 852 25.16 -0.2 31.6 60 -7.1 19.1 -92.2 -3.63
12:33 1023 30.21 852 25.16 -0.3 31.5 61 -7 19.4 -92.2 -3.63
12:34 1023 30.21 852 25.16 -0.3 31.5 61 -6.9 19.6 -92.2 -3.63
12:35 1023 30.21 852 25.16 -0.2 31.6 60 -7 19.4 -92.2 -3.63
12:36 1023 30.21 852 25.16 -0.2 31.7 58 -7.4 18.7 -92.2 -3.63
12:37 1023 30.21 852 25.16 -0.2 31.7 58 -7.5 18.6 -92.2 -3.63
12:38 1023 30.21 852 25.16 -0.2 31.6 58 -7.4 18.6 -92.2 -3.63
12:39 1023 30.21 852 25.16 -0.1 31.8 57 -7.6 18.3 -92.2 -3.63
12:40 1023 30.21 852 25.16 -0.1 31.8 58 -7.4 18.7 -92.2 -3.63
12:41 1023 30.21 852 25.16 -0.1 31.8 60 -6.9 19.6 -92.2 -3.63
12:42 1023 30.21 852 25.16 -0.1 31.8 60 -6.9 19.6 -92.2 -3.63
12:43 1023 30.21 852 25.16 -0 32 59 -7.1 19.1 -92.2 -3.63
12:44 1023 30.21 852 25.16 0.1 32.1 57 -7.4 18.7 -92.2 -3.63
12:45 1023 30.21 852 25.16 0.2 32.4 58 -7.1 19.3 -92.2 -3.63
12:46 1023 30.21 852 25.16 0.2 32.4 58 -7 19.4 -92.1 -3.626
12:47 1023 30.21 852 25.16 0.2 32.4 57 -7.3 18.9 -92.1 -3.626
12:48 1023 30.21 852 25.16 0.2 32.3 58 -7 19.3 -92.2 -3.63
12:49 1023 30.21 852 25.16 0.2 32.3 58 -7.1 19.2 -92.2 -3.63
12:50 1023 30.21 852 25.16 0.2 32.3 57 -7.3 18.8 -92.2 -3.63
12:51 1023 30.21 852 25.16 0.2 32.4 59 -6.9 19.6 -92.2 -3.63
12:52 1023 30.21 852 25.16 0.2 32.4 56 -7.6 18.4 -92.1 -3.626
12:53 1023 30.21 852 25.16 0.3 32.5 57 -7.4 18.7 -92.1 -3.626
12:54 1023 30.21 852 25.16 0.2 32.4 56 -7.6 18.2 -92.1 -3.626
12:55 1023 30.21 852 25.16 0.3 32.5 57 -7.3 18.8 -92.1 -3.626
12:56 1023 30.21 852 25.16 0.3 32.6 58 -7 19.4 -92.1 -3.626
12:57 1023 30.21 852 25.16 0.4 32.8 55 -7.5 18.5 -92.1 -3.626
12:58 1023 30.21 852 25.16 0.5 32.9 55 -7.5 18.5 -92.1 -3.626
12:59 1023 30.21 852 25.16 0.6 33.1 56 -7.2 19.1 -92.1 -3.626
13:00 1023 30.21 852 25.16 0.6 33.1 54 -7.7 18.1 -92.1 -3.626
13:01 1023 30.21 852 25.16 0.6 33.1 53 -7.8 18 -92.1 -3.626
13:02 1023 30.21 852 25.16 0.5 32.9 55 -7.5 18.6 -92.1 -3.626
13:03 1022 30.18 852 25.16 0.6 33 55 -7.5 18.5 -92.1 -3.626
13:04 1023 30.21 852 25.16 0.6 33.1 55 -7.4 18.7 -92 -3.622
13:05 1022 30.18 852 25.16 0.7 33.3 54 -7.6 18.3 -92 -3.622
13:06 1022 30.18 852 25.16 0.8 33.5 53 -7.7 18.2 -92 -3.622
13:07 1022 30.18 852 25.16 1 33.7 52 -7.8 18 -92 -3.622
13:08 1022 30.18 852 25.16 1 33.7 52 -7.8 18 -92 -3.622
13:09 1022 30.18 852 25.16 0.9 33.6 53 -7.7 18.2 -92 -3.622
13:10 1022 30.18 852 25.16 0.7 33.2 55 -7.3 18.9 -92 -3.622
13:11 1022 30.18 852 25.16 0.6 33 55 -7.3 18.8 -92 -3.622
13:12 1022 30.18 852 25.16 0.5 32.9 56 -7.3 18.8 -92 -3.622
13:13 1022 30.18 852 25.16 0.5 32.9 56 -7.3 18.8 -92 -3.622
13:14 1022 30.18 851 25.13 0.5 33 55 -7.4 18.7 -92 -3.622
13:15 1022 30.18 851 25.13 0.6 33.2 54 -7.6 18.4 -92 -3.622
13:16 1022 30.18 851 25.13 0.8 33.4 54 -7.5 18.5 -92 -3.622
13:17 1022 30.18 852 25.16 0.8 33.5 53 -7.6 18.3 -92 -3.622
13:18 1022 30.18 852 25.16 0.9 33.7 56 -6.9 19.6 -92 -3.622
13:19 1022 30.18 852 25.16 1 33.8 55 -7.1 19.2 -92 -3.622
13:20 1022 30.18 852 25.16 1 33.7 54 -7.4 18.7 -92 -3.622
13:21 1022 30.18 851 25.13 1 33.8 54 -7.4 18.7 -92 -3.622
13:22 1022 30.18 851 25.13 1 33.8 53 -7.5 18.4 -92 -3.622
13:23 1022 30.18 851 25.13 1.1 33.9 53 -7.6 18.3 -91.9 -3.618
13:24 1022 30.18 851 25.13 1.1 34 54 -7.3 18.8 -91.9 -3.618
13:25 1022 30.18 852 25.16 1.1 34 54 -7.3 18.9 -91.9 -3.618
13:26 1022 30.18 852 25.16 0.9 33.7 55 -7.1 19.3 -91.9 -3.618
13:27 1022 30.18 852 25.16 0.8 33.5 58 -6.5 20.2 -91.9 -3.618
13:28 1022 30.18 852 25.16 0.7 33.3 57 -6.9 19.6 -91.9 -3.618
13:29 1022 30.18 852 25.16 0.6 33.1 59 -6.6 20.1 -91.9 -3.618
13:30 1022 30.18 852 25.16 0.5 33 58 -6.8 19.8 -91.9 -3.618
13:31 1022 30.18 852 25.16 0.5 32.9 58 -6.7 19.9 -91.9 -3.618
13:32 1022 30.18 852 25.16 0.5 32.9 61 -6.2 20.8 -91.9 -3.618
13:33 1022 30.18 852 25.16 0.5 33 58 -6.8 19.7 -91.9 -3.618
13:34 1022 30.18 852 25.16 0.5 33 56 -7.1 19.1 -91.9 -3.618
13:35 1022 30.18 852 25.16 0.5 33 59 -6.6 20 -91.9 -3.618
13:36 1022 30.18 852 25.16 0.5 33 56 -7.2 19 -91.9 -3.618
13:37 1022 30.18 852 25.16 0.5 32.9 57 -7.1 19.2 -91.9 -3.618
13:38 1022 30.18 852 25.16 0.5 32.9 58 -6.9 19.6 -91.9 -3.618
13:39 1022 30.18 852 25.16 0.4 32.8 59 -6.7 19.9 -91.9 -3.618
13:40 1022 30.18 852 25.16 0.4 32.8 59 -6.6 20.1 -91.9 -3.618
13:41 1022 30.18 852 25.16 0.4 32.8 60 -6.5 20.3 -91.9 -3.618
13:42 1022 30.18 852 25.16 0.4 32.7 60 -6.4 20.4 -91.9 -3.618
13:43 1022 30.18 852 25.16 0.3 32.6 61 -6.2 20.8 -91.9 -3.618
13:44 1022 30.18 852 25.16 0.3 32.5 61 -6.3 20.6 -91.9 -3.618
13:45 1022 30.18 852 25.16 0.2 32.4 62 -6.2 20.9 -91.9 -3.618
13:46 1022 30.18 852 25.16 0.2 32.3 62 -6.2 20.9 -91.9 -3.618
13:47 1022 30.18 852 25.16 0.2 32.3 64 -5.9 21.4 -91.9 -3.618
13:48 1022 30.18 852 25.16 0.2 32.3 63 -6 21.2 -91.9 -3.618
13:49 1022 30.18 852 25.16 0.2 32.3 62 -6.2 20.8 -91.9 -3.618
13:50 1022 30.18 852 25.16 0.2 32.4 60 -6.6 20.1 -91.9 -3.618
13:51 1022 30.18 852 25.16 0.3 32.5 61 -6.3 20.7 -91.9 -3.618
13:52 1022 30.18 852 25.16 0.3 32.6 63 -5.9 21.3 -91.8 -3.614
13:53 1022 30.18 852 25.16 0.3 32.6 62 -6.1 21 -91.8 -3.614
13:54 1022 30.18 852 25.16 0.4 32.7 62 -6.1 21 -91.8 -3.614
13:55 1022 30.18 852 25.16 0.4 32.7 63 -5.8 21.6 -91.8 -3.614
13:56 1022 30.18 851 25.13 0.3 32.5 65 -5.5 22.1 -91.8 -3.614
13:57 1022 30.18 851 25.13 0.2 32.3 66 -5.4 22.2 -91.8 -3.614
13:58 1022 30.18 851 25.13 0 32.1 66 -5.5 22.1 -91.8 -3.614
13:59 1022 30.18 851 25.13 -0 32 67 -5.4 22.2 -91.8 -3.614
14:00 1022 30.18 851 25.13 -0.1 31.8 67 -5.5 22.1 -91.8 -3.614
14:01 1022 30.18 851 25.13 -0.2 31.7 66 -5.7 21.7 -91.8 -3.614
14:02 1022 30.18 851 25.13 -0.2 31.6 68 -5.4 22.2 -91.8 -3.614
14:03 1022 30.18 851 25.13 -0.2 31.6 67 -5.7 21.8 -91.8 -3.614
14:04 1022 30.18 851 25.13 -0.2 31.7 67 -5.6 22 -91.8 -3.614
14:05 1022 30.18 851 25.13 -0.2 31.7 67 -5.6 22 -91.8 -3.614
14:06 1022 30.18 851 25.13 -0.2 31.6 68 -5.5 22.1 -91.8 -3.614
14:07 1022 30.18 851 25.13 -0.2 31.6 68 -5.5 22.1 -91.8 -3.614
14:08 1022 30.18 851 25.13 -0.2 31.6 68 -5.5 22.2 -91.8 -3.614
14:09 1022 30.18 851 25.13 -0.2 31.7 68 -5.4 22.3 -91.7 -3.61
14:10 1022 30.18 851 25.13 -0.2 31.7 69 -5.3 22.5 -91.7 -3.61
14:11 1022 30.18 851 25.13 -0.2 31.7 70 -5 23.1 -91.7 -3.61
14:12 1022 30.18 851 25.13 -0.2 31.6 71 -4.8 23.3 -91.7 -3.61
14:13 1022 30.18 851 25.13 -0.2 31.6 70 -5 23 -91.7 -3.61
14:14 1022 30.18 851 25.13 -0.2 31.6 70 -5 23 -91.7 -3.61
14:15 1022 30.18 851 25.13 -0.2 31.6 70 -5 23 -91.7 -3.61
14:16 1022 30.18 851 25.13 -0.3 31.5 70 -5.1 22.8 -91.7 -3.61
14:17 1022 30.18 851 25.13 -0.4 31.3 70 -5.1 22.8 -91.7 -3.61
14:18 1022 30.18 851 25.13 -0.5 31.2 71 -5 23 -91.7 -3.61
14:19 1022 30.18 851 25.13 -0.5 31.1 71 -5.1 22.9 -91.7 -3.61
14:20 1022 30.18 851 25.13 -0.5 31.2 71 -5.1 22.8 -91.7 -3.61
14:21 1022 30.18 851 25.13 -0.5 31.1 71 -5.1 22.8 -91.7 -3.61
14:22 1022 30.18 851 25.13 -0.5 31 71 -5.1 22.8 -91.7 -3.61
14:23 1022 30.18 851 25.13 -0.6 30.9 72 -5 23 -91.7 -3.61
14:24 1022 30.18 851 25.13 -0.7 30.8 71 -5.3 22.5 -91.7 -3.61
14:25 1022 30.18 851 25.13 -0.8 30.6 72 -5.2 22.7 -91.7 -3.61
14:26 1022 30.18 851 25.13 -0.8 30.6 70 -5.6 21.9 -91.7 -3.61
14:27 1022 30.18 851 25.13 -0.8 30.5 70 -5.6 22 -91.7 -3.61
14:28 1022 30.18 851 25.13 -0.9 30.4 70 -5.7 21.7 -91.7 -3.61
14:29 1022 30.18 851 25.13 -0.9 30.4 70 -5.7 21.8 -91.7 -3.61
14:30 1022 30.18 851 25.13 -1 30.3 71 -5.5 22.1 -91.7 -3.61
14:31 1022 30.18 851 25.13 -1 30.2 70 -5.8 21.5 -91.7 -3.61
14:32 1022 30.18 851 25.13 -1 30.2 70 -5.8 21.5 -91.7 -3.61
14:33 1022 30.18 851 25.13 -0.9 30.4 71 -5.6 22 -91.7 -3.61
14:34 1022 30.18 851 25.13 -0.9 30.4 70 -5.6 21.9 -91.7 -3.61
14:35 1022 30.18 851 25.13 -0.9 30.5 69 -5.8 21.6 -91.7 -3.61
14:36 1022 30.18 851 25.13 -0.9 30.4 71 -5.5 22.2 -91.7 -3.61
14:37 1022 30.18 851 25.13 -0.9 30.3 71 -5.6 21.9 -91.7 -3.61
14:38 1022 30.18 851 25.13 -0.9 30.3 71 -5.5 22.1 -91.7 -3.61
14:39 1022 30.18 851 25.13 -0.9 30.3 71 -5.6 22 -91.7 -3.61
14:40 1022 30.18 851 25.13 -0.9 30.4 72 -5.3 22.4 -91.7 -3.61
14:41 1022 30.18 851 25.13 -0.8 30.5 72 -5.3 22.4 -91.7 -3.61
14:42 1022 30.18 851 25.13 -0.8 30.6 72 -5.3 22.5 -91.7 -3.61
14:43 1022 30.18 851 25.13 -0.7 30.7 72 -5.2 22.6 -91.7 -3.61
14:44 1022 30.18 851 25.13 -0.6 30.9 71 -5.3 22.4 -91.7 -3.61
14:45 1022 30.18 851 25.13 -0.5 31.1 69 -5.5 22.1 -91.7 -3.61
14:46 1022 30.18 851 25.13 -0.5 31.1 68 -5.7 21.7 -91.7 -3.61
14:47 1022 30.18 851 25.13 -0.4 31.2 69 -5.4 22.2 -91.7 -3.61
14:48 1022 30.18 851 25.13 -0.4 31.3 70 -5.2 22.6 -91.7 -3.61
14:49 1022 30.18 851 25.13 -0.4 31.2 69 -5.3 22.4 -91.7 -3.61
14:50 1022 30.18 851 25.13 -0.5 31.1 70 -5.4 22.4 -91.7 -3.61
14:51 1022 30.18 851 25.13 -0.6 30.9 70 -5.4 22.3 -91.7 -3.61
14:52 1022 30.18 851 25.13 -0.6 30.8 71 -5.4 22.4 -91.7 -3.61
14:53 1022 30.18 851 25.13 -0.7 30.8 70 -5.5 22.2 -91.7 -3.61
14:54 1022 30.18 851 25.13 -0.7 30.7 71 -5.4 22.3 -91.7 -3.61
14:55 1022 30.18 851 25.13 -0.7 30.8 70 -5.5 22.1 -91.7 -3.61
14:56 1022 30.18 851 25.13 -0.7 30.8 70 -5.5 22.1 -91.7 -3.61
14:57 1022 30.18 851 25.13 -0.6 31 70 -5.4 22.3 -91.7 -3.61
14:58 1022 30.18 851 25.13 -0.5 31 70 -5.4 22.3 -91.7 -3.61
14:59 1022 30.18 851 25.13 -0.5 31.1 69 -5.5 22.2 -91.7 -3.61
15:00 1022 30.18 851 25.13 -0.5 31 70 -5.3 22.4 -91.7 -3.61
15:01 1022 30.18 851 25.13 -0.6 30.9 69 -5.6 21.9 -91.7 -3.61
15:02 1022 30.18 851 25.13 -0.7 30.8 70 -5.5 22.1 -91.7 -3.61
15:03 1022 30.18 851 25.13 -0.8 30.6 70 -5.6 21.9 -91.7 -3.61
15:04 1022 30.18 851 25.13 -0.9 30.4 70 -5.8 21.6 -91.7 -3.61
15:05 1022 30.18 851 25.13 -1 30.2 71 -5.6 21.9 -91.7 -3.61
15:06 1022 30.18 851 25.13 -1.1 30.1 71 -5.7 21.8 -91.7 -3.61
15:07 1022 30.18 851 25.13 -1.1 30 72 -5.5 22 -91.7 -3.61
15:08 1022 30.18 851 25.13 -1.1 30 71 -5.8 21.6 -91.7 -3.61
15:09 1022 30.18 851 25.13 -1.1 30 71 -5.8 21.6 -91.7 -3.61
15:10 1022 30.18 851 25.13 -1.2 29.9 72 -5.6 21.9 -91.7 -3.61
15:11 1022 30.18 851 25.13 -1.2 29.9 72 -5.5 22 -91.7 -3.61
15:12 1022 30.18 851 25.13 -1.2 29.9 72 -5.6 21.8 -91.7 -3.61
15:13 1022 30.18 851 25.13 -1.2 29.9 72 -5.6 21.8 -91.7 -3.61
15:14 1022 30.18 851 25.13 -1.1 29.9 72 -5.6 21.9 -91.7 -3.61
15:15 1022 30.18 851 25.13 -1.1 29.9 72 -5.6 22 -91.6 -3.606
15:16 1022 30.18 851 25.13 -1.1 30 73 -5.4 22.3 -91.6 -3.606
15:17 1022 30.18 851 25.13 -1.1 30 73 -5.3 22.5 -91.6 -3.606
15:18 1022 30.18 851 25.13 -1.1 30 74 -5.2 22.6 -91.6 -3.606
15:19 1022 30.18 851 25.13 -1.1 29.9 74 -5.2 22.6 -91.6 -3.606
15:20 1022 30.18 851 25.13 -1.1 30 74 -5.1 22.8 -91.6 -3.606
15:21 1022 30.18 851 25.13 -1.1 30 74 -5.2 22.6 -91.6 -3.606
15:22 1021 30.15 851 25.13 -1.1 30 74 -5.1 22.8 -91.6 -3.606
15:23 1022 30.18 851 25.13 -1.1 29.9 75 -5.1 22.9 -91.6 -3.606
15:24 1022 30.18 851 25.13 -1.1 30 74 -5.2 22.7 -91.6 -3.606
15:25 1022 30.18 851 25.13 -1.2 29.9 74 -5.1 22.8 -91.6 -3.606
15:26 1022 30.18 851 25.13 -1.1 30 74 -5.1 22.8 -91.6 -3.606
15:27 1022 30.18 851 25.13 -1.1 30 75 -5.1 22.9 -91.6 -3.606
15:28 1022 30.18 851 25.13 -1.1 30.1 74 -5.1 22.9 -91.6 -3.606
15:29 1022 30.18 851 25.13 -1 30.1 74 -5.1 22.8 -91.6 -3.606
15:30 1022 30.18 851 25.13 -1 30.2 74 -5.1 22.8 -91.5 -3.602
15:31 1022 30.18 851 25.13 -1 30.3 74 -5.1 22.9 -91.5 -3.602
15:32 1022 30.18 851 25.13 -1 30.3 74 -5 23 -91.5 -3.602
15:33 1022 30.18 851 25.13 -1 30.2 75 -4.9 23.2 -91.5 -3.602
15:34 1022 30.18 851 25.13 -1 30.2 75 -4.8 23.4 -91.5 -3.602
15:35 1022 30.18 851 25.13 -1.1 30.1 75 -5 23 -91.5 -3.602
15:36 1022 30.18 851 25.13 -1.1 30 77 -4.7 23.5 -91.5 -3.602
15:37 1022 30.18 851 25.13 -1.2 29.9 77 -4.7 23.5 -91.4 -3.598
15:38 1022 30.18 851 25.13 -1.2 29.8 77 -4.8 23.4 -91.4 -3.598
15:39 1022 30.18 851 25.13 -1.2 29.8 77 -4.7 23.5 -91.4 -3.598
15:40 1022 30.18 851 25.13 -1.2 29.8 77 -4.8 23.4 -91.4 -3.598
15:41 1022 30.18 851 25.13 -1.2 29.8 77 -4.8 23.3 -91.3 -3.594
15:42 1022 30.18 851 25.13 -1.3 29.7 77 -4.8 23.3 -91.3 -3.594
15:43 1022 30.18 851 25.13 -1.3 29.6 78 -4.6 23.7 -91.3 -3.594
15:44 1022 30.18 851 25.13 -1.4 29.5 78 -4.7 23.6 -91.3 -3.594
15:45 1022 30.18 851 25.13 -1.5 29.3 79 -4.7 23.5 -91.2 -3.591
15:46 1022 30.18 851 25.13 -1.5 29.3 78 -4.8 23.3 -91.2 -3.591
15:47 1022 30.18 851 25.13 -1.6 29 79 -4.8 23.3 -91.2 -3.591
15:48 1022 30.18 851 25.13 -1.8 28.8 79 -5 23.1 -91.2 -3.591
15:49 1022 30.18 851 25.13 -1.9 28.5 79 -5 23 -91.2 -3.591
15:50 1022 30.18 851 25.13 -2.1 28.3 80 -5.1 22.8 -91.2 -3.591
15:51 1022 30.18 851 25.13 -2.1 28.2 80 -5.1 22.8 -91.1 -3.587
15:52 1022 30.18 851 25.13 -2.2 28.1 80 -5.1 22.8 -91.1 -3.587
15:53 1022 30.18 851 25.13 -2.2 28 81 -5.1 22.8 -91.1 -3.587
15:54 1022 30.18 851 25.13 -2.3 27.9 80 -5.2 22.6 -91.1 -3.587
15:55 1022 30.18 851 25.13 -2.3 27.8 81 -5.2 22.6 -91.1 -3.587
15:56 1022 30.18 851 25.13 -2.4 27.7 81 -5.2 22.6 -91.1 -3.587
15:57 1022 30.18 851 25.13 -2.5 27.6 81 -5.2 22.6 -91 -3.583
15:58 1022 30.18 851 25.13 -2.5 27.5 81 -5.2 22.6 -91 -3.583
15:59 1022 30.18 851 25.13 -2.5 27.5 82 -5.2 22.6 -91 -3.583
16:00 1022 30.18 851 25.13 -2.5 27.5 82 -5.2 22.6 -91 -3.583
16:01 1022 30.18 851 25.13 -2.5 27.4 81 -5.3 22.5 -91 -3.583
16:02 1022 30.18 851 25.13 -2.6 27.3 82 -5.3 22.4 -91 -3.583
16:03 1022 30.18 851 25.13 -2.7 27.2 81 -5.5 22.1 -90.9 -3.579
16:04 1022 30.18 851 25.13 -2.8 27 81 -5.6 22 -91 -3.583
16:05 1022 30.18 851 25.13 -2.9 26.8 81 -5.7 21.8 -91 -3.583
16:06 1022 30.18 851 25.13 -2.9 26.8 81 -5.7 21.8 -90.9 -3.579
16:07 1022 30.18 851 25.13 -3 26.6 81 -5.8 21.6 -90.9 -3.579
16:08 1022 30.18 851 25.13 -3.1 26.5 81 -5.9 21.4 -90.9 -3.579
16:09 1022 30.18 851 25.13 -3.2 26.2 80 -6.2 20.9 -90.9 -3.579
16:10 1022 30.18 851 25.13 -3.3 26 80 -6.3 20.6 -91 -3.583
16:11 1022 30.18 851 25.13 -3.4 25.9 80 -6.4 20.5 -91 -3.583
16:12 1022 30.18 851 25.13 -3.5 25.7 81 -6.2 20.8 -91 -3.583
16:13 1022 30.18 851 25.13 -3.7 25.4 82 -6.3 20.6 -91 -3.583
16:14 1022 30.18 851 25.13 -3.8 25.2 81 -6.6 20 -91 -3.583
16:15 1022 30.18 851 25.13 -3.9 24.9 81 -6.8 19.8 -91 -3.583
16:16 1022 30.18 851 25.13 -4.1 24.6 81 -6.9 19.5 -91 -3.583
16:17 1022 30.18 851 25.13 -4.2 24.4 81 -7.1 19.3 -91 -3.583
16:18 1022 30.18 851 25.13 -4.3 24.3 81 -7.2 19.1 -91 -3.583
16:19 1022 30.18 851 25.13 -4.4 24.1 81 -7.1 19.2 -91 -3.583
16:20 1022 30.18 851 25.13 -4.5 23.9 82 -7.2 19.1 -91.1 -3.587
16:21 1022 30.18 851 25.13 -4.5 23.9 82 -7.2 19.1 -91.1 -3.587
16:22 1022 30.18 851 25.13 -4.5 23.9 82 -7.1 19.2 -91.1 -3.587
16:23 1022 30.18 851 25.13 -4.5 23.9 83 -7 19.5 -91.1 -3.587
16:24 1022 30.18 851 25.13 -4.5 23.9 83 -6.9 19.5 -91.1 -3.587
16:25 1022 30.18 851 25.13 -4.5 23.9 84 -6.8 19.8 -91.1 -3.587
16:26 1022 30.18 851 25.13 -4.5 23.9 85 -6.7 20 -91.1 -3.587
16:27 1022 30.18 851 25.13 -4.5 23.9 85 -6.7 19.9 -91.1 -3.587
16:28 1022 30.18 851 25.13 -4.5 23.9 84 -6.8 19.8 -91.1 -3.587
16:29 1022 30.18 851 25.13 -4.4 24 84 -6.8 19.7 -91 -3.583
16:30 1022 30.18 851 25.13 -4.5 23.9 83 -6.9 19.6 -91 -3.583
16:31 1022 30.18 851 25.13 -4.6 23.8 83 -7 19.4 -91 -3.583
16:32 1022 30.18 851 25.13 -4.7 23.6 83 -7.1 19.3 -91 -3.583
16:33 1022 30.18 851 25.13 -4.8 23.4 84 -7.1 19.1 -91 -3.583
16:34 1022 30.18 851 25.13 -4.8 23.3 84 -7.1 19.1 -91 -3.583
16:35 1022 30.18 851 25.13 -4.8 23.3 85 -7 19.3 -91 -3.583
16:36 1022 30.18 851 25.13 -4.8 23.4 84 -7.1 19.3 -91 -3.583
16:37 1022 30.18 851 25.13 -4.6 23.7 82 -7.2 19 -91 -3.583
16:38 1022 30.18 851 25.13 -4.5 23.8 80 -7.5 18.4 -91 -3.583
16:39 1022 30.18 851 25.13 -4.6 23.8 79 -7.6 18.3 -91.1 -3.587
16:40 1022 30.18 851 25.13 -4.6 23.7 79 -7.7 18.2 -91.1 -3.587
16:41 1022 30.18 851 25.13 -4.6 23.7 79 -7.8 18 -91.1 -3.587
16:42 1022 30.18 851 25.13 -4.7 23.6 79 -7.8 18 -91.1 -3.587
16:43 1022 30.18 851 25.13 -4.8 23.3 80 -7.8 18 -91.2 -3.591
16:44 1022 30.18 851 25.13 -5 23 81 -7.7 18.1 -91.2 -3.591
16:45 1022 30.18 851 25.13 -5.2 22.7 82 -7.7 18.1 -91.2 -3.591
16:46 1022 30.18 851 25.13 -5.3 22.4 84 -7.7 18.2 -91.2 -3.591
16:47 1022 30.18 851 25.13 -5.4 22.3 85 -7.6 18.3 -91.2 -3.591
16:48 1022 30.18 851 25.13 -5.4 22.3 85 -7.6 18.4 -91.2 -3.591
16:49 1022 30.18 851 25.13 -5.4 22.4 85 -7.5 18.5 -91.2 -3.591
16:50 1022 30.18 851 25.13 -5.2 22.6 84 -7.5 18.5 -91.2 -3.591
16:51 1022 30.18 851 25.13 -5.1 22.8 83 -7.5 18.5 -91.2 -3.591
16:52 1022 30.18 851 25.13 -5 23 82 -7.5 18.4 -91.2 -3.591
16:53 1022 30.18 851 25.13 -4.9 23.1 82 -7.5 18.5 -91.2 -3.591
16:54 1022 30.18 851 25.13 -4.9 23.1 82 -7.5 18.4 -91.2 -3.591
16:55 1022 30.18 851 25.13 -4.9 23.1 82 -7.6 18.4 -91.2 -3.591
16:56 1022 30.18 851 25.13 -4.9 23.1 82 -7.6 18.4 -91.2 -3.591
16:57 1022 30.18 851 25.13 -4.9 23.2 82 -7.6 18.4 -91.2 -3.591
16:58 1022 30.18 851 25.13 -4.8 23.3 81 -7.5 18.4 -91.2 -3.591
16:59 1022 30.18 851 25.13 -4.7 23.6 81 -7.5 18.5 -91.2 -3.591
17:00 1022 30.18 851 25.13 -4.6 23.8 80 -7.6 18.4 -91.3 -3.594
17:01 1022 30.18 851 25.13 -4.4 24.1 79 -7.5 18.5 -91.3 -3.594
17:02 1022 30.18 851 25.13 -4.3 24.3 78 -7.6 18.4 -91.3 -3.594
17:03 1022 30.18 851 25.13 -4.2 24.5 78 -7.5 18.4 -91.3 -3.594
17:04 1022 30.18 851 25.13 -4.2 24.5 77 -7.6 18.4 -91.4 -3.598
17:05 1022 30.18 851 25.13 -4.1 24.6 77 -7.6 18.4 -91.4 -3.598
17:06 1022 30.18 851 25.13 -4.1 24.6 77 -7.6 18.3 -91.4 -3.598
17:07 1022 30.18 851 25.13 -4.1 24.7 76 -7.6 18.2 -91.4 -3.598
17:08 1022 30.18 851 25.13 -4 24.9 76 -7.6 18.3 -91.5 -3.602
17:09 1022 30.18 851 25.13 -4 24.8 75 -7.7 18.1 -91.5 -3.602
17:10 1022 30.18 851 25.13 -4 24.8 76 -7.7 18.1 -91.5 -3.602
17:11 1022 30.18 851 25.13 -4.1 24.6 76 -7.7 18.1 -91.5 -3.602
17:12 1022 30.18 851 25.13 -4.2 24.5 76 -7.7 18.1 -91.5 -3.602
17:13 1022 30.18 851 25.13 -4.2 24.5 76 -7.7 18.1 -91.5 -3.602
17:14 1022 30.18 851 25.13 -4.1 24.6 76 -7.7 18.1 -91.6 -3.606
17:15 1022 30.18 851 25.13 -4 24.7 76 -7.7 18.1 -91.6 -3.606
17:16 1022 30.18 851 25.13 -3.9 24.9 75 -7.7 18.2 -91.6 -3.606
17:17 1022 30.18 851 25.13 -3.8 25.1 75 -7.7 18.2 -91.6 -3.606
17:18 1022 30.18 851 25.13 -3.7 25.3 75 -7.6 18.3 -91.6 -3.606
17:19 1022 30.18 851 25.13 -3.6 25.6 74 -7.6 18.3 -91.6 -3.606
17:20 1022 30.18 851 25.13 -3.5 25.8 73 -7.6 18.3 -91.6 -3.606
17:21 1022 30.18 851 25.13 -3.4 25.9 73 -7.6 18.4 -91.7 -3.61
17:22 1022 30.18 851 25.13 -3.4 25.9 73 -7.6 18.3 -91.7 -3.61
17:23 1022 30.18 851 25.13 -3.3 26 73 -7.5 18.4 -91.7 -3.61
17:24 1022 30.18 851 25.13 -3.3 26 72 -7.6 18.3 -91.7 -3.61
17:25 1022 30.18 851 25.13 -3.2 26.2 72 -7.5 18.4 -91.7 -3.61
17:26 1021 30.15 851 25.13 -3.2 26.3 72 -7.6 18.4 -91.7 -3.61
17:27 1021 30.15 851 25.13 -3.1 26.4 71 -7.6 18.4 -91.7 -3.61
17:28 1021 30.15 851 25.13 -3.1 26.4 72 -7.5 18.4 -91.8 -3.614
17:29 1021 30.15 851 25.13 -3.1 26.5 71 -7.5 18.4 -91.8 -3.614
17:30 1021 30.15 851 25.13 -3.1 26.5 71 -7.7 18.2 -91.8 -3.614
17:31 1021 30.15 851 25.13 -3.1 26.5 71 -7.6 18.2 -91.8 -3.614
17:32 1021 30.15 851 25.13 -3.1 26.4 71 -7.6 18.2 -91.8 -3.614
17:33 1021 30.15 851 25.13 -3.1 26.4 71 -7.6 18.2 -91.8 -3.614
17:34 1021 30.15 851 25.13 -3.2 26.3 71 -7.7 18.2 -91.8 -3.614
17:35 1021 30.15 851 25.13 -3.2 26.2 71 -7.7 18.1 -91.8 -3.614
17:36 1021 30.15 851 25.13 -3.3 26 72 -7.7 18.1 -91.9 -3.618
17:37 1021 30.15 851 25.13 -3.4 25.9 72 -7.7 18.1 -91.9 -3.618
17:38 1021 30.15 851 25.13 -3.4 25.9 72 -7.7 18.1 -91.9 -3.618
17:39 1021 30.15 851 25.13 -3.4 25.8 72 -7.8 18 -91.9 -3.618
17:40 1021 30.15 851 25.13 -3.4 25.8 72 -7.8 18 -91.9 -3.618
17:41 1021 30.15 851 25.13 -3.4 25.9 72 -7.8 18 -91.9 -3.618
17:42 1021 30.15 851 25.13 -3.3 26 71 -7.8 18 -91.9 -3.618
17:43 1021 30.15 851 25.13 -3.3 26.1 71 -7.8 18 -91.9 -3.618
17:44 1021 30.15 851 25.13 -3.3 26.1 71 -7.8 18 -91.9 -3.618
17:45 1021 30.15 851 25.13 -3.3 26 71 -7.8 17.9 -91.9 -3.618
17:46 1021 30.15 851 25.13 -3.3 26 71 -7.9 17.8 -91.9 -3.618
17:47 1021 30.15 851 25.13 -3.4 25.9 71 -7.9 17.7 -91.9 -3.618
17:48 1021 30.15 851 25.13 -3.4 25.8 71 -7.9 17.7 -91.9 -3.618
17:49 1021 30.15 851 25.13 -3.5 25.8 71 -8 17.6 -91.9 -3.618
17:50 1021 30.15 851 25.13 -3.4 25.9 70 -8.1 17.4 -91.9 -3.618
17:51 1021 30.15 851 25.13 -3.3 26 70 -8.1 17.4 -91.9 -3.618
17:52 1021 30.15 851 25.13 -3.2 26.2 69 -8.1 17.4 -91.9 -3.618
17:53 1021 30.15 851 25.13 -3.2 26.3 69 -8.1 17.4 -91.9 -3.618
17:54 1021 30.15 851 25.13 -3.1 26.4 68 -8.2 17.3 -91.9 -3.618
17:55 1021 30.15 851 25.13 -3 26.6 68 -8.1 17.3 -92 -3.622
17:56 1021 30.15 851 25.13 -2.9 26.8 67 -8.1 17.3 -92 -3.622
17:57 1021 30.15 851 25.13 -2.8 27 67 -8.1 17.3 -92 -3.622
17:58 1021 30.15 850 25.1 -2.7 27.2 66 -8.1 17.4 -92 -3.622
17:59 1021 30.15 851 25.13 -2.6 27.3 66 -8.1 17.3 -92 -3.622
18:00 1021 30.15 850 25.1 -2.5 27.4 66 -8.1 17.4 -92 -3.622
18:01 1021 30.15 850 25.1 -2.5 27.6 65 -8.1 17.4 -92 -3.622
18:02 1021 30.15 850 25.1 -2.4 27.7 65 -8.1 17.4 -92 -3.622
18:03 1021 30.15 850 25.1 -2.3 27.8 65 -8.1 17.5 -92 -3.622
18:04 1021 30.15 850 25.1 -2.3 27.9 65 -8.1 17.4 -92 -3.622
18:05 1021 30.15 850 25.1 -2.3 27.9 65 -8.1 17.5 -92 -3.622
18:06 1021 30.15 850 25.1 -2.3 27.9 64 -8.1 17.4 -92 -3.622
18:07 1021 30.15 850 25.1 -2.2 28 64 -8.1 17.4 -92.1 -3.626
18:08 1021 30.15 850 25.1 -2.2 28.1 64 -8.1 17.4 -92.1 -3.626
18:09 1021 30.15 850 25.1 -2.1 28.3 64 -8.1 17.5 -92.1 -3.626
18:10 1021 30.15 850 25.1 -2 28.4 63 -8.1 17.5 -92.1 -3.626
18:11 1021 30.15 850 25.1 -2.1 28.2 64 -8.1 17.5 -92.1 -3.626
18:12 1021 30.15 850 25.1 -2.2 28 64 -8.1 17.5 -92.1 -3.626
18:13 1021 30.15 850 25.1 -2.3 27.8 65 -8.1 17.4 -92.1 -3.626
18:14 1021 30.15 850 25.1 -2.4 27.8 65 -8.1 17.4 -92.1 -3.626
18:15 1021 30.15 850 25.1 -2.4 27.7 65 -8.1 17.4 -92.1 -3.626
18:16 1021 30.15 850 25.1 -2.3 27.8 65 -8.1 17.4 -92.1 -3.626
18:17 1021 30.15 850 25.1 -2.3 27.8 65 -8.1 17.4 -92.1 -3.626
18:18 1021 30.15 850 25.1 -2.4 27.8 65 -8.1 17.4 -92.1 -3.626
18:19 1021 30.15 850 25.1 -2.3 27.9 64 -8.1 17.4 -92.1 -3.626
18:20 1021 30.15 850 25.1 -2.4 27.6 65 -8.1 17.3 -92.1 -3.626
18:21 1021 30.15 850 25.1 -2.6 27.4 66 -8.2 17.3 -92.1 -3.626
18:22 1021 30.15 850 25.1 -2.6 27.4 66 -8.2 17.3 -92.1 -3.626
18:23 1021 30.15 850 25.1 -2.6 27.4 65 -8.4 16.9 -92.1 -3.626
18:24 1021 30.15 850 25.1 -2.9 26.7 65 -8.7 16.4 -92.1 -3.626
18:25 1021 30.15 850 25.1 -3.6 25.5 69 -8.6 16.6 -92.1 -3.626
18:26 1021 30.15 850 25.1 -3.9 25 71 -8.3 17 -92.1 -3.626
18:27 1021 30.15 850 25.1 -3.9 25 72 -8.2 17.2 -92.1 -3.626
18:28 1021 30.15 850 25.1 -3.9 25 72 -8.2 17.3 -92.1 -3.626
18:29 1021 30.15 850 25.1 -3.7 25.3 72 -8.1 17.4 -92.1 -3.626
18:30 1021 30.15 850 25.1 -3.7 25.3 71 -8.2 17.2 -92.1 -3.626
18:31 1021 30.15 850 25.1 -3.8 25.2 71 -8.4 16.9 -92.1 -3.626
18:32 1021 30.15 850 25.1 -3.9 24.9 72 -8.3 17.1 -92.1 -3.626
18:33 1021 30.15 850 25.1 -4 24.8 73 -8.2 17.2 -92.1 -3.626
18:34 1021 30.15 850 25.1 -4 24.8 71 -8.5 16.6 -92.1 -3.626
18:35 1021 30.15 850 25.1 -4.2 24.4 71 -8.8 16.2 -92.1 -3.626
18:36 1021 30.15 850 25.1 -4.6 23.7 72 -9 15.9 -92.1 -3.626
18:37 1021 30.15 850 25.1 -5 22.9 74 -9 15.7 -92.1 -3.626
18:38 1021 30.15 850 25.1 -5.4 22.3 75 -9.1 15.6 -92.1 -3.626
18:39 1021 30.15 850 25.1 -5.6 21.9 79 -8.7 16.3 -92.1 -3.626
18:40 1021 30.15 850 25.1 -5.5 22.1 79 -8.5 16.7 -92.1 -3.626
18:41 1021 30.15 850 25.1 -5.4 22.3 78 -8.7 16.3 -92.1 -3.626
18:42 1021 30.15 850 25.1 -5.4 22.2 77 -8.9 16.1 -92 -3.622
18:43 1021 30.15 850 25.1 -5.7 21.7 77 -9.1 15.6 -92 -3.622
18:44 1021 30.15 850 25.1 -5.9 21.3 79 -8.9 15.9 -92 -3.622
18:45 1021 30.15 850 25.1 -6.1 21.1 80 -9 15.8 -92 -3.622
18:46 1021 30.15 850 25.1 -6.1 21 81 -8.9 15.9 -92 -3.622
18:47 1021 30.15 850 25.1 -6.1 20.9 79 -9.2 15.4 -92 -3.622
18:48 1021 30.15 850 25.1 -6.3 20.6 80 -9.3 15.2 -92 -3.622
18:49 1021 30.15 850 25.1 -6.4 20.5 81 -9.1 15.7 -92 -3.622
18:50 1021 30.15 850 25.1 -6.4 20.5 83 -8.8 16.1 -92 -3.622
18:51 1021 30.15 850 25.1 -6.3 20.7 83 -8.8 16.2 -92 -3.622
18:52 1021 30.15 850 25.1 -6.1 21 82 -8.7 16.4 -92 -3.622
18:53 1021 30.15 850 25.1 -6 21.2 81 -8.7 16.4 -92 -3.622
18:54 1021 30.15 850 25.1 -6 21.3 80 -8.8 16.2 -92 -3.622
18:55 1021 30.15 850 25.1 -5.9 21.4 79 -9 15.9 -92 -3.622
18:56 1021 30.15 850 25.1 -6.1 21.1 79 -9.2 15.4 -92 -3.622
18:57 1021 30.15 850 25.1 -6.3 20.7 79 -9.4 15.1 -92 -3.622
18:58 1021 30.15 850 25.1 -6.6 20.2 81 -9.4 15.1 -92 -3.622
18:59 1021 30.15 850 25.1 -6.6 20 82 -9.2 15.4 -92 -3.622
19:00 1021 30.15 851 25.13 -6.6 20 82 -9.2 15.4 -92 -3.622
19:01 1021 30.15 851 25.13 -6.7 19.9 82 -9.3 15.3 -92 -3.622
19:02 1021 30.15 851 25.13 -6.8 19.8 82 -9.4 15.1 -92 -3.622
19:03 1021 30.15 851 25.13 -6.9 19.6 83 -9.4 15.2 -92 -3.622
19:04 1021 30.15 851 25.13 -6.9 19.6 84 -9.2 15.5 -92 -3.622
19:05 1021 30.15 851 25.13 -6.9 19.6 84 -9.2 15.5 -92 -3.622
19:06 1021 30.15 851 25.13 -6.8 19.8 85 -8.9 16.1 -92 -3.622
19:07 1021 30.15 851 25.13 -6.5 20.3 85 -8.6 16.6 -92 -3.622
19:08 1021 30.15 851 25.13 -6.3 20.7 84 -8.5 16.6 -92 -3.622
19:09 1021 30.15 851 25.13 -6.1 21 82 -8.7 16.4 -92 -3.622
19:10 1021 30.15 851 25.13 -6.1 21.1 82 -8.7 16.3 -92 -3.622
19:11 1021 30.15 851 25.13 -6 21.2 81 -8.8 16.1 -92 -3.622
19:12 1021 30.15 851 25.13 -6 21.1 80 -8.9 16 -92 -3.622
19:13 1021 30.15 851 25.13 -6.2 20.9 81 -8.9 15.9 -92.1 -3.626
19:14 1021 30.15 851 25.13 -6.2 20.8 80 -9.1 15.6 -92.1 -3.626
19:15 1022 30.18 851 25.13 -6.4 20.4 80 -9.3 15.3 -92.1 -3.626
19:16 1022 30.18 851 25.13 -6.6 20.1 82 -9.3 15.3 -92.1 -3.626
19:17 1022 30.18 851 25.13 -6.7 19.9 82 -9.3 15.2 -92.1 -3.626
19:18 1022 30.18 851 25.13 -6.8 19.8 83 -9.3 15.3 -92.1 -3.626
19:19 1022 30.18 851 25.13 -6.9 19.6 83 -9.2 15.4 -92.1 -3.626
19:20 1022 30.18 851 25.13 -6.9 19.5 82 -9.4 15 -92.1 -3.626
19:21 1022 30.18 851 25.13 -7.1 19.3 83 -9.5 14.9 -92.1 -3.626
19:22 1022 30.18 851 25.13 -7.2 19.1 84 -9.5 15 -92.1 -3.626
19:23 1022 30.18 851 25.13 -7.2 19.1 84 -9.4 15 -92.1 -3.626
19:24 1022 30.18 851 25.13 -7.2 19 84 -9.5 14.9 -92.1 -3.626
19:25 1022 30.18 851 25.13 -7.3 18.9 85 -9.4 15.1 -92.1 -3.626
19:26 1022 30.18 851 25.13 -7.2 19.1 86 -9.1 15.7 -92.1 -3.626
19:27 1022 30.18 851 25.13 -6.9 19.5 87 -8.7 16.3 -92.1 -3.626
19:28 1022 30.18 851 25.13 -6.6 20.2 87 -8.4 17 -92.1 -3.626
19:29 1022 30.18 851 25.13 -6 21.2 84 -8.3 17 -92.1 -3.626
19:30 1022 30.18 851 25.13 -5.8 21.5 80 -8.7 16.4 -92.1 -3.626
19:31 1022 30.18 851 25.13 -5.8 21.6 78 -9.1 15.7 -92.1 -3.626
19:32 1022 30.18 851 25.13 -5.9 21.4 81 -8.7 16.3 -92.1 -3.626
19:33 1022 30.18 851 25.13 -5.9 21.4 81 -8.6 16.6 -92.1 -3.626
19:34 1022 30.18 851 25.13 -5.8 21.6 79 -8.9 15.9 -92.1 -3.626
19:35 1022 30.18 851 25.13 -5.8 21.5 81 -8.7 16.4 -92.1 -3.626
19:36 1022 30.18 851 25.13 -5.8 21.5 80 -8.8 16.1 -92.1 -3.626
19:37 1022 30.18 851 25.13 -5.8 21.5 79 -8.8 16.1 -92.2 -3.63
19:38 1022 30.18 851 25.13 -5.9 21.5 79 -8.9 15.9 -92.2 -3.63
19:39 1022 30.18 851 25.13 -6 21.3 79 -9 15.8 -92.2 -3.63
19:40 1022 30.18 851 25.13 -6 21.1 79 -9.1 15.7 -92.2 -3.63
19:41 1022 30.18 851 25.13 -6.2 20.9 81 -9 15.8 -92.2 -3.63
19:42 1022 30.18 851 25.13 -6.2 20.8 81 -9 15.7 -92.2 -3.63
19:43 1022 30.18 851 25.13 -6.3 20.6 81 -9.1 15.6 -92.2 -3.63
19:44 1022 30.18 851 25.13 -6.4 20.5 82 -8.9 16 -92.2 -3.63
19:45 1022 30.18 851 25.13 -6.4 20.5 81 -9.2 15.5 -92.2 -3.63
19:46 1022 30.18 851 25.13 -6.5 20.4 81 -9.3 15.3 -92.2 -3.63
19:47 1022 30.18 851 25.13 -6.6 20.1 81 -9.3 15.3 -92.2 -3.63
19:48 1022 30.18 851 25.13 -6.6 20.1 82 -9.2 15.4 -92.2 -3.63
19:49 1022 30.18 851 25.13 -6.6 20.1 81 -9.3 15.3 -92.2 -3.63
19:50 1022 30.18 851 25.13 -6.7 20 82 -9.3 15.2 -92.2 -3.63
19:51 1022 30.18 851 25.13 -6.7 20 82 -9.2 15.4 -92.2 -3.63
19:52 1022 30.18 851 25.13 -6.6 20.1 83 -9.1 15.7 -92.2 -3.63
19:53 1022 30.18 851 25.13 -6.4 20.4 82 -9 15.8 -92.2 -3.63
19:54 1022 30.18 851 25.13 -6.4 20.5 81 -9.1 15.5 -92.2 -3.63
19:55 1022 30.18 851 25.13 -6.4 20.5 80 -9.3 15.3 -92.2 -3.63
19:56 1022 30.18 851 25.13 -6.5 20.3 82 -9.1 15.6 -92.2 -3.63
19:57 1022 30.18 851 25.13 -6.5 20.2 80 -9.4 15.1 -92.2 -3.63
19:58 1022 30.18 851 25.13 -6.6 20 82 -9.3 15.3 -92.3 -3.634
19:59 1022 30.18 851 25.13 -6.6 20.1 81 -9.4 15.1 -92.3 -3.634
20:00 1022 30.18 851 25.13 -6.6 20.1 82 -9.1 15.6 -92.3 -3.634
20:01 1022 30.18 851 25.13 -6.5 20.3 83 -8.9 15.9 -92.2 -3.63
20:02 1022 30.18 851 25.13 -6.3 20.6 85 -8.5 16.7 -92.2 -3.63
20:03 1022 30.18 851 25.13 -6 21.3 80 -8.8 16.2 -92.2 -3.63
20:04 1022 30.18 851 25.13 -5.8 21.6 76 -9.3 15.2 -92.2 -3.63
20:05 1022 30.18 851 25.13 -5.9 21.3 77 -9.4 15.1 -92.2 -3.63
20:06 1022 30.18 851 25.13 -6.2 20.9 79 -9.2 15.4 -92.2 -3.63
20:07 1022 30.18 851 25.13 -6.4 20.6 81 -9.2 15.5 -92.3 -3.634
20:08 1022 30.18 851 25.13 -6.4 20.4 81 -9.2 15.5 -92.2 -3.63
20:09 1022 30.18 851 25.13 -6.4 20.4 82 -9 15.8 -92.2 -3.63
20:10 1022 30.18 851 25.13 -6.4 20.5 81 -9.1 15.7 -92.2 -3.63
20:11 1022 30.18 851 25.13 -6.3 20.6 81 -9.1 15.6 -92.2 -3.63
20:12 1022 30.18 851 25.13 -6.3 20.7 80 -9.1 15.5 -92.2 -3.63
20:13 1022 30.18 851 25.13 -6.4 20.6 80 -9.2 15.4 -92.2 -3.63
20:14 1022 30.18 851 25.13 -6.5 20.4 80 -9.3 15.3 -92.3 -3.634
20:15 1022 30.18 851 25.13 -6.6 20.1 81 -9.4 15.2 -92.2 -3.63
20:16 1022 30.18 851 25.13 -6.7 20 82 -9.3 15.2 -92.2 -3.63
20:17 1022 30.18 851 25.13 -6.8 19.8 82 -9.3 15.2 -92.2 -3.63
20:18 1022 30.18 851 25.13 -6.8 19.7 83 -9.2 15.4 -92.3 -3.634
20:19 1022 30.18 852 25.16 -6.9 19.7 82 -9.4 15 -92.2 -3.63
20:20 1022 30.18 852 25.16 -7 19.4 83 -9.4 15.2 -92.3 -3.634
20:21 1022 30.18 852 25.16 -7 19.3 85 -9.2 15.5 -92.3 -3.634
20:22 1022 30.18 852 25.16 -7 19.5 86 -9 15.8 -92.2 -3.63
20:23 1022 30.18 852 25.16 -6.8 19.7 86 -8.9 16 -92.2 -3.63
20:24 1022 30.18 852 25.16 -6.8 19.8 86 -8.7 16.3 -92.2 -3.63
20:25 1022 30.18 852 25.16 -6.7 20 85 -8.8 16.2 -92.2 -3.63
20:26 1022 30.18 852 25.16 -6.7 20 86 -8.7 16.4 -92.2 -3.63
20:27 1022 30.18 852 25.16 -6.6 20.1 86 -8.6 16.5 -92.3 -3.634
20:28 1022 30.18 852 25.16 -6.6 20.2 85 -8.6 16.5 -92.2 -3.63
20:29 1022 30.18 852 25.16 -6.5 20.3 85 -8.6 16.5 -92.3 -3.634
20:30 1022 30.18 852 25.16 -6.5 20.3 85 -8.6 16.5 -92.2 -3.63
20:31 1022 30.18 852 25.16 -6.5 20.2 85 -8.6 16.5 -92.2 -3.63
20:32 1022 30.18 852 25.16 -6.5 20.2 85 -8.6 16.5 -92.2 -3.63
20:33 1022 30.18 852 25.16 -6.6 20.2 86 -8.6 16.5 -92.2 -3.63
20:34 1022 30.18 852 25.16 -6.6 20.2 86 -8.6 16.6 -92.2 -3.63
20:35 1022 30.18 852 25.16 -6.6 20.1 87 -8.5 16.7 -92.2 -3.63
20:36 1022 30.18 852 25.16 -6.5 20.2 87 -8.4 16.8 -92.2 -3.63
20:37 1022 30.18 852 25.16 -6.5 20.2 87 -8.4 16.8 -92.2 -3.63
20:38 1022 30.18 852 25.16 -6.5 20.3 86 -8.5 16.8 -92.2 -3.63
20:39 1022 30.18 852 25.16 -6.5 20.2 86 -8.5 16.8 -92.2 -3.63
20:40 1022 30.18 852 25.16 -6.5 20.2 87 -8.4 16.9 -92.2 -3.63
20:41 1022 30.18 852 25.16 -6.6 20.2 87 -8.3 17 -92.2 -3.63
20:42 1022 30.18 852 25.16 -6.5 20.2 88 -8.3 17.1 -92.2 -3.63
20:43 1023 30.21 852 25.16 -6.5 20.3 88 -8.2 17.2 -92.2 -3.63
20:44 1023 30.21 852 25.16 -6.5 20.3 88 -8.2 17.2 -92.2 -3.63
20:45 1023 30.21 852 25.16 -6.5 20.3 88 -8.2 17.3 -92.2 -3.63
20:46 1023 30.21 852 25.16 -6.5 20.4 88 -8.1 17.4 -92.2 -3.63
20:47 1023 30.21 852 25.16 -6.4 20.4 88 -8.1 17.5 -92.2 -3.63
20:48 1023 30.21 852 25.16 -6.4 20.4 88 -8.1 17.4 -92.2 -3.63
20:49 1023 30.21 852 25.16 -6.4 20.5 88 -8 17.6 -92.2 -3.63
20:50 1023 30.21 852 25.16 -6.3 20.6 88 -8 17.6 -92.2 -3.63
20:51 1023 30.21 852 25.16 -6.3 20.7 88 -7.9 17.7 -92.2 -3.63
20:52 1023 30.21 852 25.16 -6.3 20.7 88 -7.9 17.7 -92.2 -3.63
20:53 1023 30.21 852 25.16 -6.2 20.8 88 -7.9 17.8 -92.2 -3.63
20:54 1023 30.21 852 25.16 -6.2 20.9 88 -7.9 17.8 -92.1 -3.626
20:55 1023 30.21 852 25.16 -6.1 21 87 -7.9 17.8 -92.1 -3.626
20:56 1023 30.21 852 25.16 -6.1 21.1 87 -7.8 17.9 -92.1 -3.626
20:57 1023 30.21 852 25.16 -6 21.1 88 -7.8 18 -92.1 -3.626
20:58 1023 30.21 852 25.16 -6 21.2 88 -7.8 18 -92.1 -3.626
20:59 1023 30.21 852 25.16 -6 21.2 88 -7.7 18.1 -92.1 -3.626
21:00 1023 30.21 852 25.16 -5.9 21.3 87 -7.7 18.1 -92.1 -3.626
21:01 1023 30.21 852 25.16 -5.9 21.4 87 -7.7 18.1 -92.1 -3.626
21:02 1023 30.21 852 25.16 -5.8 21.5 87 -7.7 18.2 -92.1 -3.626
21:03 1023 30.21 852 25.16 -5.8 21.6 87 -7.7 18.2 -92.1 -3.626
21:04 1023 30.21 852 25.16 -5.8 21.6 87 -7.7 18.2 -92.1 -3.626
21:05 1023 30.21 852 25.16 -5.7 21.7 86 -7.7 18.2 -92.1 -3.626
21:06 1023 30.21 852 25.16 -5.7 21.8 86 -7.7 18.2 -92.1 -3.626
21:07 1023 30.21 852 25.16 -5.6 21.9 86 -7.7 18.2 -92.1 -3.626
21:08 1023 30.21 852 25.16 -5.6 21.8 86 -7.7 18.2 -92.1 -3.626
21:09 1023 30.21 852 25.16 -5.7 21.8 86 -7.7 18.1 -92.1 -3.626
21:10 1023 30.21 852 25.16 -5.6 21.9 86 -7.7 18.2 -92.1 -3.626
21:11 1023 30.21 852 25.16 -5.6 21.9 85 -7.7 18.2 -92.1 -3.626
21:12 1023 30.21 852 25.16 -5.5 22 85 -7.7 18.2 -92.1 -3.626
21:13 1023 30.21 852 25.16 -5.5 22.1 85 -7.7 18.2 -92.1 -3.626
21:14 1023 30.21 852 25.16 -5.5 22.1 84 -7.7 18.1 -92.2 -3.63
21:15 1023 30.21 852 25.16 -5.4 22.3 84 -7.7 18.2 -92.2 -3.63
21:16 1023 30.21 852 25.16 -5.4 22.3 84 -7.7 18.2 -92.1 -3.626
21:17 1023 30.21 852 25.16 -5.4 22.3 84 -7.7 18.1 -92.2 -3.63
21:18 1023 30.21 852 25.16 -5.3 22.5 83 -7.7 18.2 -92.2 -3.63
21:19 1023 30.21 852 25.16 -5.2 22.6 83 -7.6 18.3 -92.2 -3.63
21:20 1023 30.21 852 25.16 -5.2 22.6 83 -7.7 18.2 -92.2 -3.63
21:21 1023 30.21 852 25.16 -5.2 22.7 83 -7.7 18.2 -92.2 -3.63
21:22 1023 30.21 852 25.16 -5.1 22.8 83 -7.6 18.3 -92.2 -3.63
21:23 1023 30.21 852 25.16 -5.1 22.9 83 -7.6 18.4 -92.2 -3.63
21:24 1023 30.21 852 25.16 -5.1 22.9 83 -7.6 18.4 -92.2 -3.63
21:25 1023 30.21 852 25.16 -5 23 83 -7.6 18.4 -92.2 -3.63
21:26 1023 30.21 852 25.16 -5 23 83 -7.5 18.5 -92.2 -3.63
21:27 1023 30.21 852 25.16 -5 23 83 -7.5 18.5 -92.2 -3.63
21:28 1023 30.21 852 25.16 -4.9 23.1 82 -7.5 18.6 -92.2 -3.63
21:29 1023 30.21 852 25.16 -4.9 23.2 82 -7.4 18.6 -92.2 -3.63
21:30 1023 30.21 852 25.16 -4.9 23.2 82 -7.4 18.6 -92.2 -3.63
21:31 1023 30.21 852 25.16 -4.8 23.3 82 -7.4 18.6 -92.2 -3.63
21:32 1023 30.21 852 25.16 -4.7 23.5 82 -7.4 18.7 -92.2 -3.63
21:33 1023 30.21 852 25.16 -4.6 23.6 81 -7.4 18.6 -92.2 -3.63
21:34 1023 30.21 852 25.16 -4.6 23.7 81 -7.4 18.6 -92.2 -3.63
21:35 1023 30.21 852 25.16 -4.5 23.9 80 -7.4 18.6 -92.2 -3.63
21:36 1023 30.21 852 25.16 -4.4 24 80 -7.4 18.7 -92.2 -3.63
21:37 1023 30.21 852 25.16 -4.5 24 80 -7.4 18.7 -92.2 -3.63
21:38 1023 30.21 852 25.16 -4.4 24 80 -7.3 18.8 -92.2 -3.63
21:39 1023 30.21 852 25.16 -4.4 24.1 80 -7.3 18.8 -92.2 -3.63
21:40 1023 30.21 852 25.16 -4.4 24.1 80 -7.4 18.7 -92.2 -3.63
21:41 1023 30.21 852 25.16 -4.4 24.1 80 -7.4 18.7 -92.2 -3.63
21:42 1023 30.21 852 25.16 -4.4 24.2 79 -7.4 18.6 -92.2 -3.63
21:43 1023 30.21 852 25.16 -4.3 24.2 80 -7.4 18.7 -92.2 -3.63
21:44 1023 30.21 852 25.16 -4.3 24.3 80 -7.3 18.9 -92.3 -3.634
21:45 1023 30.21 852 25.16 -4.3 24.2 80 -7.3 18.9 -92.2 -3.63
21:46 1023 30.21 852 25.16 -4.3 24.2 80 -7.3 18.9 -92.3 -3.634
21:47 1023 30.21 852 25.16 -4.3 24.3 79 -7.4 18.7 -92.2 -3.63
21:48 1023 30.21 852 25.16 -4.3 24.3 79 -7.4 18.6 -92.3 -3.634
21:49 1023 30.21 852 25.16 -4.2 24.5 78 -7.4 18.7 -92.3 -3.634
21:50 1023 30.21 852 25.16 -4.1 24.6 78 -7.5 18.5 -92.3 -3.634
21:51 1023 30.21 852 25.16 -4.1 24.7 77 -7.5 18.5 -92.3 -3.634
21:52 1023 30.21 852 25.16 -4 24.8 77 -7.4 18.7 -92.3 -3.634
21:53 1023 30.21 852 25.16 -3.9 24.9 77 -7.3 18.8 -92.3 -3.634
21:54 1023 30.21 852 25.16 -4 24.9 77 -7.4 18.8 -92.3 -3.634
21:55 1023 30.21 852 25.16 -4 24.9 78 -7.3 18.9 -92.3 -3.634
21:56 1023 30.21 852 25.16 -4 24.8 78 -7.3 18.8 -92.3 -3.634
21:57 1023 30.21 852 25.16 -4 24.8 78 -7.3 18.8 -92.3 -3.634
21:58 1023 30.21 852 25.16 -4 24.8 78 -7.3 18.8 -92.3 -3.634
21:59 1023 30.21 852 25.16 -4 24.8 78 -7.3 18.9 -92.3 -3.634
22:00 1023 30.21 852 25.16 -4 24.8 77 -7.4 18.7 -92.3 -3.634
22:01 1023 30.21 852 25.16 -3.9 25 77 -7.3 18.8 -92.3 -3.634
22:02 1023 30.21 852 25.16 -3.9 25 77 -7.3 18.8 -92.3 -3.634
22:03 1023 30.21 852 25.16 -3.8 25.1 77 -7.3 18.9 -92.3 -3.634
22:04 1023 30.21 852 25.16 -3.8 25.1 77 -7.2 19 -92.3 -3.634
22:05 1023 30.21 852 25.16 -3.9 25.1 78 -7.2 19.1 -92.3 -3.634
22:06 1023 30.21 852 25.16 -3.9 25 78 -7.2 19.1 -92.3 -3.634
22:07 1023 30.21 852 25.16 -3.9 24.9 78 -7.1 19.1 -92.3 -3.634
22:08 1023 30.21 852 25.16 -3.9 24.9 79 -7 19.3 -92.3 -3.634
22:09 1023 30.21 852 25.16 -4 24.8 80 -7 19.3 -92.3 -3.634
22:10 1023 30.21 852 25.16 -4 24.8 80 -7 19.4 -92.2 -3.63
22:11 1023 30.21 852 25.16 -4.1 24.7 80 -7 19.3 -92.2 -3.63
22:12 1023 30.21 852 25.16 -4.1 24.6 80 -7.1 19.3 -92.2 -3.63
22:13 1023 30.21 852 25.16 -4.1 24.6 80 -7.1 19.2 -92.2 -3.63
22:14 1023 30.21 852 25.16 -4.2 24.5 80 -7.1 19.2 -92.2 -3.63
22:15 1023 30.21 852 25.16 -4.2 24.5 80 -7 19.3 -92.2 -3.63
22:16 1023 30.21 852 25.16 -4.2 24.5 80 -7.1 19.3 -92.2 -3.63
22:17 1023 30.21 852 25.16 -4.2 24.4 80 -7.1 19.2 -92.2 -3.63
22:18 1023 30.21 852 25.16 -4.2 24.5 80 -7.2 19.1 -92.2 -3.63
22:19 1023 30.21 852 25.16 -4.1 24.5 80 -7.2 19.1 -92.2 -3.63
22:20 1023 30.21 852 25.16 -4.2 24.5 79 -7.2 19 -92.2 -3.63
22:21 1023 30.21 852 25.16 -4.2 24.5 79 -7.2 19 -92.2 -3.63
22:22 1023 30.21 852 25.16 -4.2 24.5 80 -7.1 19.1 -92.2 -3.63
22:23 1023 30.21 852 25.16 -4.1 24.6 80 -7.1 19.3 -92.2 -3.63
22:24 1023 30.21 852 25.16 -4.2 24.5 80 -7.1 19.2 -92.2 -3.63
22:25 1023 30.21 852 25.16 -4.2 24.5 80 -7.2 19.1 -92.2 -3.63
22:26 1023 30.21 852 25.16 -4.2 24.4 80 -7.2 19.1 -92.2 -3.63
22:27 1023 30.21 852 25.16 -4.2 24.4 80 -7.1 19.2 -92.2 -3.63
22:28 1023 30.21 852 25.16 -4.3 24.3 81 -7.1 19.1 -92.2 -3.63
22:29 1023 30.21 852 25.16 -4.3 24.3 80 -7.2 19.1 -92.2 -3.63
22:30 1023 30.21 852 25.16 -4.3 24.3 80 -7.2 19 -92.2 -3.63
22:31 1023 30.21 852 25.16 -4.3 24.2 81 -7.1 19.2 -92.2 -3.63
22:32 1023 30.21 852 25.16 -4.4 24.2 81 -7.2 19 -92.2 -3.63
22:33 1023 30.21 852 25.16 -4.3 24.2 81 -7.1 19.2 -92.2 -3.63
22:34 1023 30.21 852 25.16 -4.4 24.1 81 -7.2 19 -92.2 -3.63
22:35 1023 30.21 852 25.16 -4.4 24.2 81 -7.2 19 -92.2 -3.63
22:36 1023 30.21 852 25.16 -4.3 24.2 80 -7.2 19 -92.2 -3.63
22:37 1023 30.21 852 25.16 -4.3 24.3 80 -7.2 19 -92.2 -3.63
22:38 1023 30.21 852 25.16 -4.3 24.3 80 -7.2 19 -92.2 -3.63
22:39 1023 30.21 852 25.16 -4.3 24.3 80 -7.2 19 -92.2 -3.63
22:40 1023 30.21 852 25.16 -4.3 24.3 80 -7.2 19 -92.2 -3.63
22:41 1023 30.21 852 25.16 -4.3 24.2 80 -7.2 19 -92.2 -3.63
22:42 1023 30.21 852 25.16 -4.3 24.3 80 -7.2 19 -92.2 -3.63
22:43 1023 30.21 852 25.16 -4.3 24.3 80 -7.2 19 -92.2 -3.63
22:44 1023 30.21 852 25.16 -4.3 24.3 80 -7.2 19 -92.2 -3.63
22:45 1023 30.21 852 25.16 -4.2 24.4 80 -7.2 19.1 -92.2 -3.63
22:46 1023 30.21 852 25.16 -4.2 24.4 80 -7.2 19.1 -92.2 -3.63
22:47 1023 30.21 852 25.16 -4.2 24.4 80 -7.2 19 -92.2 -3.63
22:48 1023 30.21 852 25.16 -4.3 24.3 80 -7.3 18.9 -92.2 -3.63
22:49 1023 30.21 852 25.16 -4.2 24.4 80 -7.2 19 -92.2 -3.63
22:50 1023 30.21 852 25.16 -4.2 24.4 80 -7.2 19 -92.2 -3.63
22:51 1023 30.21 852 25.16 -4.2 24.4 80 -7.2 19 -92.2 -3.63
22:52 1023 30.21 853 25.19 -4.2 24.4 79 -7.3 18.9 -92.2 -3.63
22:53 1023 30.21 853 25.19 -4.2 24.4 79 -7.3 18.8 -92.2 -3.63
22:54 1023 30.21 853 25.19 -4.1 24.6 79 -7.3 18.9 -92.2 -3.63
22:55 1023 30.21 852 25.16 -4.1 24.6 79 -7.3 18.9 -92.2 -3.63
22:56 1023 30.21 852 25.16 -4.2 24.5 79 -7.3 18.8 -92.2 -3.63
22:57 1023 30.21 852 25.16 -4.1 24.6 79 -7.3 18.8 -92.2 -3.63
22:58 1023 30.21 852 25.16 -4.1 24.6 78 -7.3 18.8 -92.2 -3.63
22:59 1023 30.21 852 25.16 -4.1 24.7 78 -7.3 18.9 -92.2 -3.63
23:00 1023 30.21 852 25.16 -4.1 24.7 79 -7.2 19 -92.2 -3.63
23:01 1023 30.21 852 25.16 -4.1 24.6 79 -7.3 18.9 -92.2 -3.63
23:02 1023 30.21 852 25.16 -4.1 24.6 79 -7.3 18.9 -92.2 -3.63
23:03 1023 30.21 852 25.16 -4.1 24.6 78 -7.3 18.8 -92.2 -3.63
23:04 1023 30.21 852 25.16 -4.1 24.6 78 -7.3 18.8 -92.2 -3.63
23:05 1023 30.21 852 25.16 -4.1 24.5 79 -7.3 18.8 -92.2 -3.63
23:06 1023 30.21 852 25.16 -4.2 24.5 78 -7.4 18.7 -92.2 -3.63
23:07 1023 30.21 852 25.16 -4.2 24.5 79 -7.3 18.8 -92.2 -3.63
23:08 1023 30.21 852 25.16 -4.2 24.4 79 -7.4 18.6 -92.2 -3.63
23:09 1023 30.21 852 25.16 -4.3 24.3 79 -7.4 18.8 -92.2 -3.63
23:10 1023 30.21 852 25.16 -4.3 24.2 79 -7.4 18.7 -92.2 -3.63
23:11 1023 30.21 852 25.16 -4.3 24.2 79 -7.4 18.6 -92.2 -3.63
23:12 1023 30.21 852 25.16 -4.3 24.3 79 -7.4 18.7 -92.2 -3.63
23:13 1023 30.21 852 25.16 -4.3 24.2 79 -7.5 18.6 -92.2 -3.63
23:14 1023 30.21 852 25.16 -4.4 24.1 79 -7.5 18.5 -92.2 -3.63
23:15 1023 30.21 852 25.16 -4.3 24.2 79 -7.5 18.5 -92.2 -3.63
23:16 1023 30.21 852 25.16 -4.4 24.1 78 -7.6 18.4 -92.2 -3.63
23:17 1023 30.21 852 25.16 -4.4 24.1 78 -7.6 18.2 -92.2 -3.63
23:18 1023 30.21 852 25.16 -4.4 24 79 -7.6 18.3 -92.2 -3.63
23:19 1023 30.21 852 25.16 -4.5 23.9 79 -7.7 18.2 -92.2 -3.63
23:20 1023 30.21 852 25.16 -4.5 23.9 78 -7.7 18.1 -92.2 -3.63
23:21 1023 30.21 852 25.16 -4.5 23.8 78 -7.8 17.9 -92.2 -3.63
23:22 1023 30.21 852 25.16 -4.6 23.7 78 -7.8 17.9 -92.2 -3.63
23:23 1023 30.21 852 25.16 -4.6 23.7 78 -7.8 18 -92.2 -3.63
23:24 1023 30.21 852 25.16 -4.7 23.5 78 -8 17.7 -92.2 -3.63
23:25 1023 30.21 852 25.16 -4.8 23.4 79 -7.9 17.8 -92.2 -3.63
23:26 1023 30.21 852 25.16 -4.8 23.3 79 -7.9 17.8 -92.2 -3.63
23:27 1023 30.21 852 25.16 -4.9 23.3 79 -7.9 17.7 -92.2 -3.63
23:28 1023 30.21 852 25.16 -4.9 23.2 79 -8 17.7 -92.2 -3.63
23:29 1023 30.21 852 25.16 -5 23.1 80 -7.9 17.7 -92.2 -3.63
23:30 1023 30.21 852 25.16 -4.9 23.1 80 -7.8 17.9 -92.2 -3.63
23:31 1023 30.21 852 25.16 -4.9 23.2 80 -7.9 17.8 -92.2 -3.63
23:32 1023 30.21 852 25.16 -4.9 23.1 79 -8 17.7 -92.2 -3.63
23:33 1023 30.21 852 25.16 -4.9 23.1 80 -7.8 18 -92.2 -3.63
23:34 1023 30.21 852 25.16 -4.9 23.2 80 -7.8 18 -92.2 -3.63
23:35 1023 30.21 852 25.16 -4.8 23.4 80 -7.7 18.1 -92.2 -3.63
23:36 1023 30.21 852 25.16 -4.7 23.5 79 -7.7 18.1 -92.2 -3.63
23:37 1023 30.21 853 25.19 -4.6 23.6 79 -7.8 17.9 -92.2 -3.63
23:38 1023 30.21 853 25.19 -4.6 23.7 78 -7.9 17.8 -92.2 -3.63
23:39 1023 30.21 853 25.19 -4.7 23.6 78 -8 17.6 -92.2 -3.63
23:40 1023 30.21 853 25.19 -4.8 23.4 78 -8 17.5 -92.2 -3.63
23:41 1023 30.21 853 25.19 -4.9 23.1 80 -7.9 17.7 -92.2 -3.63
23:42 1023 30.21 853 25.19 -5 23.1 79 -8 17.6 -92.2 -3.63
23:43 1023 30.21 853 25.19 -4.9 23.2 80 -7.8 18 -92.2 -3.63
23:44 1023 30.21 853 25.19 -4.8 23.3 79 -7.9 17.8 -92.2 -3.63
23:45 1023 30.21 853 25.19 -4.8 23.4 79 -7.9 17.8 -92.2 -3.63
23:46 1023 30.21 853 25.19 -4.8 23.3 80 -7.8 17.9 -92.2 -3.63
23:47 1023 30.21 853 25.19 -4.8 23.4 80 -7.7 18.1 -92.2 -3.63
23:48 1023 30.21 852 25.16 -4.7 23.6 79 -7.7 18.1 -92.2 -3.63
23:49 1023 30.21 852 25.16 -4.6 23.7 79 -7.7 18.1 -92.2 -3.63
23:50 1023 30.21 852 25.16 -4.6 23.7 79 -7.7 18.1 -92.2 -3.63
23:51 1023 30.21 852 25.16 -4.6 23.7 79 -7.7 18.1 -92.2 -3.63
23:52 1023 30.21 852 25.16 -4.6 23.7 79 -7.8 18 -92.2 -3.63
23:53 1023 30.21 852 25.16 -4.6 23.7 79 -7.8 18 -92.2 -3.63
23:54 1023 30.21 852 25.16 -4.6 23.7 79 -7.8 18 -92.2 -3.63
23:55 1023 30.21 852 25.16 -4.7 23.5 79 -7.8 17.9 -92.2 -3.63
23:56 1023 30.21 852 25.16 -4.7 23.5 79 -7.8 17.9 -92.2 -3.63
23:57 1023 30.21 852 25.16 -4.7 23.5 79 -7.8 17.9 -92.2 -3.63
23:58 1023 30.21 852 25.16 -4.8 23.4 80 -7.7 18.1 -92.2 -3.63
23:59 1023 30.21 852 25.16 -4.8 23.4 80 -7.8 18 -92.2 -3.63
24:00 1023 30.21 852 25.16 -4.8 23.4 80 -7.8 18 -92.2 -3.63